<?xml version="1.0" encoding="UTF-8" standalone="no" ?>
<gpx xmlns="http://www.topografix.com/GPX/1/1" xmlns:xsi="http://www.w3.org/2001/XMLSchema-instance" xsi:schemaLocation="http://www.topografix.com/GPX/1/1 http://www.topografix.com/GPX/1/1/gpx.xsd" version="1.1" creator="VisuGPX - https://www.visugpx.com">
  <metadata>
    <name>CP trace 6-Gilley-Grandfontaine-Gilley</name>
  </metadata>
  <trk>
    <name><![CDATA[test2]]></name>
    <trkseg>
      <trkpt lat="47.05252" lon="6.49175">
        <ele>865</ele>
        <time>2019-08-23T18:29:01Z</time>
      </trkpt>
      <trkpt lat="47.05347" lon="6.49166">
        <ele>865</ele>
        <time>2019-08-23T18:29:19Z</time>
      </trkpt>
      <trkpt lat="47.05362" lon="6.49164">
        <ele>865</ele>
        <time>2019-08-23T18:29:22Z</time>
      </trkpt>
      <trkpt lat="47.05419" lon="6.49143">
        <ele>865</ele>
        <time>2019-08-23T18:29:34Z</time>
      </trkpt>
      <trkpt lat="47.05445" lon="6.49137">
        <ele>865</ele>
        <time>2019-08-23T18:29:40Z</time>
      </trkpt>
      <trkpt lat="47.05488" lon="6.49124">
        <ele>865</ele>
        <time>2019-08-23T18:29:55Z</time>
      </trkpt>
      <trkpt lat="47.05527" lon="6.49118">
        <ele>864.6</ele>
        <time>2019-08-23T18:30:16Z</time>
      </trkpt>
      <trkpt lat="47.05541" lon="6.49115">
        <ele>865</ele>
        <time>2019-08-23T18:30:19Z</time>
      </trkpt>
      <trkpt lat="47.05549" lon="6.49115">
        <ele>865</ele>
        <time>2019-08-23T18:30:31Z</time>
      </trkpt>
      <trkpt lat="47.05581" lon="6.4911">
        <ele>865</ele>
        <time>2019-08-23T18:30:39Z</time>
      </trkpt>
      <trkpt lat="47.05603" lon="6.49108">
        <ele>865</ele>
        <time>2019-08-23T18:30:51Z</time>
      </trkpt>
      <trkpt lat="47.05631" lon="6.49112">
        <ele>865</ele>
        <time>2019-08-23T18:30:54Z</time>
      </trkpt>
      <trkpt lat="47.05637" lon="6.49115">
        <ele>865</ele>
        <time>2019-08-23T18:31:00Z</time>
      </trkpt>
      <trkpt lat="47.0565" lon="6.49119">
        <ele>865</ele>
        <time>2019-08-23T18:31:06Z</time>
      </trkpt>
      <trkpt lat="47.05663" lon="6.49124">
        <ele>865</ele>
        <time>2019-08-23T18:31:15Z</time>
      </trkpt>
      <trkpt lat="47.05682" lon="6.49133">
        <ele>865</ele>
        <time>2019-08-23T18:31:27Z</time>
      </trkpt>
      <trkpt lat="47.05711" lon="6.49145">
        <ele>871</ele>
        <time>2019-08-23T18:31:36Z</time>
      </trkpt>
      <trkpt lat="47.0573" lon="6.49155">
        <ele>872</ele>
        <time>2019-08-23T18:31:42Z</time>
      </trkpt>
      <trkpt lat="47.05743" lon="6.49161">
        <ele>873</ele>
        <time>2019-08-23T18:31:51Z</time>
      </trkpt>
      <trkpt lat="47.05765" lon="6.49157">
        <ele>874</ele>
        <time>2019-08-23T18:32:03Z</time>
      </trkpt>
      <trkpt lat="47.05792" lon="6.49148">
        <ele>878</ele>
        <time>2019-08-23T18:32:06Z</time>
      </trkpt>
      <trkpt lat="47.05797" lon="6.49141">
        <ele>878</ele>
        <time>2019-08-23T18:32:12Z</time>
      </trkpt>
      <trkpt lat="47.05796" lon="6.49123">
        <ele>879</ele>
        <time>2019-08-23T18:32:18Z</time>
      </trkpt>
      <trkpt lat="47.05803" lon="6.49115">
        <ele>880</ele>
        <time>2019-08-23T18:32:24Z</time>
      </trkpt>
      <trkpt lat="47.05815" lon="6.49134">
        <ele>880</ele>
        <time>2019-08-23T18:32:33Z</time>
      </trkpt>
      <trkpt lat="47.05839" lon="6.49164">
        <ele>882</ele>
        <time>2019-08-23T18:32:45Z</time>
      </trkpt>
      <trkpt lat="47.0587" lon="6.49206">
        <ele>882</ele>
        <time>2019-08-23T18:32:54Z</time>
      </trkpt>
      <trkpt lat="47.05898" lon="6.49241">
        <ele>883</ele>
        <time>2019-08-23T18:33:02Z</time>
      </trkpt>
      <trkpt lat="47.05926" lon="6.49275">
        <ele>883</ele>
        <time>2019-08-23T18:33:08Z</time>
      </trkpt>
      <trkpt lat="47.05948" lon="6.49298">
        <ele>884</ele>
        <time>2019-08-23T18:33:20Z</time>
      </trkpt>
      <trkpt lat="47.05998" lon="6.49338">
        <ele>885</ele>
        <time>2019-08-23T18:33:29Z</time>
      </trkpt>
      <trkpt lat="47.06039" lon="6.4937">
        <ele>884</ele>
        <time>2019-08-23T18:33:38Z</time>
      </trkpt>
      <trkpt lat="47.06081" lon="6.49398">
        <ele>885</ele>
        <time>2019-08-23T18:33:50Z</time>
      </trkpt>
      <trkpt lat="47.06138" lon="6.49426">
        <ele>886</ele>
        <time>2019-08-23T18:33:56Z</time>
      </trkpt>
      <trkpt lat="47.06165" lon="6.4944">
        <ele>888</ele>
        <time>2019-08-23T18:33:59Z</time>
      </trkpt>
      <trkpt lat="47.06177" lon="6.49445">
        <ele>888</ele>
        <time>2019-08-23T18:34:14Z</time>
      </trkpt>
      <trkpt lat="47.06239" lon="6.49471">
        <ele>891</ele>
        <time>2019-08-23T18:34:26Z</time>
      </trkpt>
      <trkpt lat="47.06288" lon="6.49491">
        <ele>891</ele>
        <time>2019-08-23T18:34:35Z</time>
      </trkpt>
      <trkpt lat="47.06327" lon="6.49509">
        <ele>892</ele>
        <time>2019-08-23T18:34:53Z</time>
      </trkpt>
      <trkpt lat="47.064" lon="6.49549">
        <ele>895</ele>
        <time>2019-08-23T18:35:02Z</time>
      </trkpt>
      <trkpt lat="47.06434" lon="6.4957">
        <ele>896</ele>
        <time>2019-08-23T18:35:31Z</time>
      </trkpt>
      <trkpt lat="47.0647" lon="6.49592">
        <ele>905.4</ele>
        <time>2019-08-23T18:36:04Z</time>
      </trkpt>
      <trkpt lat="47.06546" lon="6.49649">
        <ele>900</ele>
        <time>2019-08-23T18:36:07Z</time>
      </trkpt>
      <trkpt lat="47.06639" lon="6.49719">
        <ele>914.8</ele>
        <time>2019-08-23T18:36:13Z</time>
      </trkpt>
      <trkpt lat="47.06656" lon="6.4973">
        <ele>905</ele>
        <time>2019-08-23T18:36:19Z</time>
      </trkpt>
      <trkpt lat="47.06662" lon="6.49733">
        <ele>906</ele>
        <time>2019-08-23T18:36:28Z</time>
      </trkpt>
      <trkpt lat="47.06669" lon="6.49737">
        <ele>906</ele>
        <time>2019-08-23T18:36:40Z</time>
      </trkpt>
      <trkpt lat="47.06667" lon="6.49717">
        <ele>908</ele>
        <time>2019-08-23T18:36:49Z</time>
      </trkpt>
      <trkpt lat="47.06666" lon="6.49694">
        <ele>910</ele>
        <time>2019-08-23T18:37:01Z</time>
      </trkpt>
      <trkpt lat="47.06663" lon="6.49671">
        <ele>913</ele>
        <time>2019-08-23T18:37:16Z</time>
      </trkpt>
      <trkpt lat="47.06656" lon="6.49659">
        <ele>914</ele>
        <time>2019-08-23T18:37:25Z</time>
      </trkpt>
      <trkpt lat="47.06649" lon="6.49636">
        <ele>917</ele>
        <time>2019-08-23T18:37:36Z</time>
      </trkpt>
      <trkpt lat="47.06641" lon="6.4961">
        <ele>918</ele>
        <time>2019-08-23T18:37:51Z</time>
      </trkpt>
      <trkpt lat="47.06637" lon="6.49596">
        <ele>921</ele>
        <time>2019-08-23T18:38:06Z</time>
      </trkpt>
      <trkpt lat="47.06632" lon="6.49579">
        <ele>923</ele>
        <time>2019-08-23T18:38:15Z</time>
      </trkpt>
      <trkpt lat="47.06624" lon="6.49552">
        <ele>926</ele>
        <time>2019-08-23T18:38:27Z</time>
      </trkpt>
      <trkpt lat="47.06613" lon="6.49529">
        <ele>930</ele>
        <time>2019-08-23T18:38:36Z</time>
      </trkpt>
      <trkpt lat="47.06604" lon="6.4951">
        <ele>933</ele>
        <time>2019-08-23T18:38:48Z</time>
      </trkpt>
      <trkpt lat="47.06595" lon="6.49492">
        <ele>936</ele>
        <time>2019-08-23T18:38:57Z</time>
      </trkpt>
      <trkpt lat="47.0659" lon="6.49472">
        <ele>937</ele>
        <time>2019-08-23T18:39:09Z</time>
      </trkpt>
      <trkpt lat="47.06582" lon="6.49452">
        <ele>939</ele>
        <time>2019-08-23T18:39:24Z</time>
      </trkpt>
      <trkpt lat="47.06578" lon="6.49432">
        <ele>942</ele>
        <time>2019-08-23T18:39:33Z</time>
      </trkpt>
      <trkpt lat="47.0657" lon="6.49408">
        <ele>944</ele>
        <time>2019-08-23T18:39:45Z</time>
      </trkpt>
      <trkpt lat="47.06564" lon="6.49383">
        <ele>944</ele>
        <time>2019-08-23T18:39:53Z</time>
      </trkpt>
      <trkpt lat="47.06562" lon="6.49363">
        <ele>945</ele>
        <time>2019-08-23T18:40:02Z</time>
      </trkpt>
      <trkpt lat="47.0656" lon="6.49324">
        <ele>952</ele>
        <time>2019-08-23T18:40:14Z</time>
      </trkpt>
      <trkpt lat="47.06561" lon="6.4932">
        <ele>948</ele>
        <time>2019-08-23T18:40:20Z</time>
      </trkpt>
      <trkpt lat="47.06558" lon="6.49298">
        <ele>950</ele>
        <time>2019-08-23T18:40:29Z</time>
      </trkpt>
      <trkpt lat="47.06558" lon="6.49273">
        <ele>951</ele>
        <time>2019-08-23T18:40:44Z</time>
      </trkpt>
      <trkpt lat="47.06553" lon="6.49243">
        <ele>952</ele>
        <time>2019-08-23T18:40:59Z</time>
      </trkpt>
      <trkpt lat="47.06556" lon="6.49226">
        <ele>953</ele>
        <time>2019-08-23T18:41:11Z</time>
      </trkpt>
      <trkpt lat="47.06549" lon="6.492">
        <ele>953</ele>
        <time>2019-08-23T18:41:26Z</time>
      </trkpt>
      <trkpt lat="47.0654" lon="6.49165">
        <ele>955</ele>
        <time>2019-08-23T18:41:47Z</time>
      </trkpt>
      <trkpt lat="47.06532" lon="6.49151">
        <ele>956.6</ele>
        <time>2019-08-23T18:41:56Z</time>
      </trkpt>
      <trkpt lat="47.06527" lon="6.49134">
        <ele>957</ele>
        <time>2019-08-23T18:42:07Z</time>
      </trkpt>
      <trkpt lat="47.06528" lon="6.49102">
        <ele>958.4</ele>
        <time>2019-08-23T18:42:22Z</time>
      </trkpt>
      <trkpt lat="47.0651" lon="6.49071">
        <ele>960</ele>
        <time>2019-08-23T18:42:28Z</time>
      </trkpt>
      <trkpt lat="47.06487" lon="6.49033">
        <ele>960</ele>
        <time>2019-08-23T18:42:37Z</time>
      </trkpt>
      <trkpt lat="47.06474" lon="6.49016">
        <ele>961</ele>
        <time>2019-08-23T18:42:46Z</time>
      </trkpt>
      <trkpt lat="47.06456" lon="6.49005">
        <ele>962</ele>
        <time>2019-08-23T18:43:40Z</time>
      </trkpt>
      <trkpt lat="47.0644" lon="6.48999">
        <ele>962</ele>
        <time>2019-08-23T18:43:43Z</time>
      </trkpt>
      <trkpt lat="47.06431" lon="6.48995">
        <ele>963</ele>
        <time>2019-08-23T18:43:49Z</time>
      </trkpt>
      <trkpt lat="47.06429" lon="6.48983">
        <ele>965</ele>
        <time>2019-08-23T18:43:55Z</time>
      </trkpt>
      <trkpt lat="47.06427" lon="6.48962">
        <ele>966</ele>
        <time>2019-08-23T18:45:51Z</time>
      </trkpt>
      <trkpt lat="47.06406" lon="6.48856">
        <ele>972</ele>
        <time>2019-08-23T18:45:57Z</time>
      </trkpt>
      <trkpt lat="47.06406" lon="6.48856">
        <ele>976.5</ele>
        <time>2019-08-23T18:46:53Z</time>
      </trkpt>
      <trkpt lat="47.06451" lon="6.48861">
        <ele>972</ele>
        <time>2019-08-23T18:47:02Z</time>
      </trkpt>
      <trkpt lat="47.06456" lon="6.48836">
        <ele>974</ele>
        <time>2019-08-23T18:47:08Z</time>
      </trkpt>
      <trkpt lat="47.06461" lon="6.48796">
        <ele>975</ele>
        <time>2019-08-23T18:47:20Z</time>
      </trkpt>
      <trkpt lat="47.06463" lon="6.4878">
        <ele>975</ele>
        <time>2019-08-23T18:47:29Z</time>
      </trkpt>
      <trkpt lat="47.06471" lon="6.48747">
        <ele>980.9</ele>
        <time>2019-08-23T18:47:35Z</time>
      </trkpt>
      <trkpt lat="47.06474" lon="6.48728">
        <ele>977</ele>
        <time>2019-08-23T18:47:41Z</time>
      </trkpt>
      <trkpt lat="47.06482" lon="6.48723">
        <ele>977</ele>
        <time>2019-08-23T18:48:05Z</time>
      </trkpt>
      <trkpt lat="47.06492" lon="6.48705">
        <ele>981.4</ele>
        <time>2019-08-23T18:48:11Z</time>
      </trkpt>
      <trkpt lat="47.06509" lon="6.4869">
        <ele>976</ele>
        <time>2019-08-23T18:48:17Z</time>
      </trkpt>
      <trkpt lat="47.0652" lon="6.48663">
        <ele>974</ele>
        <time>2019-08-23T18:48:41Z</time>
      </trkpt>
      <trkpt lat="47.0654" lon="6.48633">
        <ele>972</ele>
        <time>2019-08-23T18:49:22Z</time>
      </trkpt>
      <trkpt lat="47.06563" lon="6.48596">
        <ele>979.3</ele>
        <time>2019-08-23T18:49:28Z</time>
      </trkpt>
      <trkpt lat="47.06562" lon="6.48562">
        <ele>981.4</ele>
        <time>2019-08-23T18:49:31Z</time>
      </trkpt>
      <trkpt lat="47.06566" lon="6.48512">
        <ele>975</ele>
        <time>2019-08-23T18:49:43Z</time>
      </trkpt>
      <trkpt lat="47.06563" lon="6.48486">
        <ele>985.3</ele>
        <time>2019-08-23T18:49:49Z</time>
      </trkpt>
      <trkpt lat="47.06547" lon="6.48472">
        <ele>987.4</ele>
        <time>2019-08-23T18:49:52Z</time>
      </trkpt>
      <trkpt lat="47.06528" lon="6.48475">
        <ele>988</ele>
        <time>2019-08-23T18:50:28Z</time>
      </trkpt>
      <trkpt lat="47.06501" lon="6.485">
        <ele>980</ele>
        <time>2019-08-23T18:50:34Z</time>
      </trkpt>
      <trkpt lat="47.06472" lon="6.48521">
        <ele>983</ele>
        <time>2019-08-23T18:50:40Z</time>
      </trkpt>
      <trkpt lat="47.06455" lon="6.48519">
        <ele>984</ele>
        <time>2019-08-23T18:51:01Z</time>
      </trkpt>
      <trkpt lat="47.06439" lon="6.48503">
        <ele>984</ele>
        <time>2019-08-23T18:51:18Z</time>
      </trkpt>
      <trkpt lat="47.06415" lon="6.48473">
        <ele>985</ele>
        <time>2019-08-23T18:51:30Z</time>
      </trkpt>
      <trkpt lat="47.06402" lon="6.48446">
        <ele>986</ele>
        <time>2019-08-23T18:51:39Z</time>
      </trkpt>
      <trkpt lat="47.06395" lon="6.48397">
        <ele>988</ele>
        <time>2019-08-23T18:51:51Z</time>
      </trkpt>
      <trkpt lat="47.06389" lon="6.48325">
        <ele>989</ele>
        <time>2019-08-23T18:51:57Z</time>
      </trkpt>
      <trkpt lat="47.06394" lon="6.48257">
        <ele>992</ele>
        <time>2019-08-23T18:52:12Z</time>
      </trkpt>
      <trkpt lat="47.06397" lon="6.48205">
        <ele>993</ele>
        <time>2019-08-23T18:52:15Z</time>
      </trkpt>
      <trkpt lat="47.06397" lon="6.48172">
        <ele>993</ele>
        <time>2019-08-23T18:52:21Z</time>
      </trkpt>
      <trkpt lat="47.06393" lon="6.48154">
        <ele>994</ele>
        <time>2019-08-23T18:52:33Z</time>
      </trkpt>
      <trkpt lat="47.06374" lon="6.48102">
        <ele>996</ele>
        <time>2019-08-23T18:52:42Z</time>
      </trkpt>
      <trkpt lat="47.06361" lon="6.4808">
        <ele>996</ele>
        <time>2019-08-23T18:52:51Z</time>
      </trkpt>
      <trkpt lat="47.06352" lon="6.48071">
        <ele>997</ele>
        <time>2019-08-23T18:53:03Z</time>
      </trkpt>
      <trkpt lat="47.0628" lon="6.48042">
        <ele>1002.8</ele>
        <time>2019-08-23T18:53:18Z</time>
      </trkpt>
      <trkpt lat="47.06223" lon="6.48011">
        <ele>1000</ele>
        <time>2019-08-23T18:53:27Z</time>
      </trkpt>
      <trkpt lat="47.06204" lon="6.48003">
        <ele>1004.4</ele>
        <time>2019-08-23T18:53:33Z</time>
      </trkpt>
      <trkpt lat="47.06188" lon="6.47994">
        <ele>1002</ele>
        <time>2019-08-23T18:53:44Z</time>
      </trkpt>
      <trkpt lat="47.06176" lon="6.47983">
        <ele>1006.7</ele>
        <time>2019-08-23T18:54:20Z</time>
      </trkpt>
      <trkpt lat="47.06168" lon="6.4796">
        <ele>1007.1</ele>
        <time>2019-08-23T18:54:29Z</time>
      </trkpt>
      <trkpt lat="47.06166" lon="6.47933">
        <ele>1005</ele>
        <time>2019-08-23T18:54:35Z</time>
      </trkpt>
      <trkpt lat="47.06165" lon="6.47865">
        <ele>1007</ele>
        <time>2019-08-23T18:54:56Z</time>
      </trkpt>
      <trkpt lat="47.06164" lon="6.47818">
        <ele>1008</ele>
        <time>2019-08-23T18:55:05Z</time>
      </trkpt>
      <trkpt lat="47.06162" lon="6.47785">
        <ele>1009</ele>
        <time>2019-08-23T18:55:17Z</time>
      </trkpt>
      <trkpt lat="47.06164" lon="6.47737">
        <ele>1011</ele>
        <time>2019-08-23T18:55:41Z</time>
      </trkpt>
      <trkpt lat="47.06163" lon="6.47725">
        <ele>1013</ele>
        <time>2019-08-23T18:55:55Z</time>
      </trkpt>
      <trkpt lat="47.06212" lon="6.47759">
        <ele>1013.3</ele>
        <time>2019-08-23T18:56:07Z</time>
      </trkpt>
      <trkpt lat="47.06223" lon="6.47747">
        <ele>1014</ele>
        <time>2019-08-23T18:56:49Z</time>
      </trkpt>
      <trkpt lat="47.06236" lon="6.47733">
        <ele>1015</ele>
        <time>2019-08-23T18:56:58Z</time>
      </trkpt>
      <trkpt lat="47.06257" lon="6.4771">
        <ele>1017</ele>
        <time>2019-08-23T18:57:13Z</time>
      </trkpt>
      <trkpt lat="47.06275" lon="6.47695">
        <ele>1018</ele>
        <time>2019-08-23T18:57:34Z</time>
      </trkpt>
      <trkpt lat="47.06294" lon="6.47678">
        <ele>1020</ele>
        <time>2019-08-23T18:57:40Z</time>
      </trkpt>
      <trkpt lat="47.06315" lon="6.47658">
        <ele>1021</ele>
        <time>2019-08-23T18:58:04Z</time>
      </trkpt>
      <trkpt lat="47.0633" lon="6.47619">
        <ele>1025</ele>
        <time>2019-08-23T18:58:24Z</time>
      </trkpt>
      <trkpt lat="47.0634" lon="6.47596">
        <ele>1026</ele>
        <time>2019-08-23T18:58:30Z</time>
      </trkpt>
      <trkpt lat="47.06349" lon="6.47586">
        <ele>1028</ele>
        <time>2019-08-23T18:58:36Z</time>
      </trkpt>
      <trkpt lat="47.0637" lon="6.47571">
        <ele>1030</ele>
        <time>2019-08-23T18:58:39Z</time>
      </trkpt>
      <trkpt lat="47.06385" lon="6.47561">
        <ele>1031</ele>
        <time>2019-08-23T18:58:51Z</time>
      </trkpt>
      <trkpt lat="47.06404" lon="6.47549">
        <ele>1035</ele>
        <time>2019-08-23T18:58:57Z</time>
      </trkpt>
      <trkpt lat="47.06423" lon="6.47544">
        <ele>1036</ele>
        <time>2019-08-23T18:59:00Z</time>
      </trkpt>
      <trkpt lat="47.06442" lon="6.47545">
        <ele>1038</ele>
        <time>2019-08-23T18:59:06Z</time>
      </trkpt>
      <trkpt lat="47.06472" lon="6.47546">
        <ele>1045</ele>
        <time>2019-08-23T18:59:12Z</time>
      </trkpt>
      <trkpt lat="47.065" lon="6.47546">
        <ele>1045</ele>
        <time>2019-08-23T18:59:15Z</time>
      </trkpt>
      <trkpt lat="47.06518" lon="6.47544">
        <ele>1049</ele>
        <time>2019-08-23T18:59:21Z</time>
      </trkpt>
      <trkpt lat="47.0653" lon="6.47533">
        <ele>1054</ele>
        <time>2019-08-23T18:59:27Z</time>
      </trkpt>
      <trkpt lat="47.06551" lon="6.47519">
        <ele>1054</ele>
        <time>2019-08-23T18:59:33Z</time>
      </trkpt>
      <trkpt lat="47.06584" lon="6.47497">
        <ele>1059</ele>
        <time>2019-08-23T18:59:36Z</time>
      </trkpt>
      <trkpt lat="47.066" lon="6.47474">
        <ele>1065.1</ele>
        <time>2019-08-23T18:59:42Z</time>
      </trkpt>
      <trkpt lat="47.0662" lon="6.47447">
        <ele>1066.8</ele>
        <time>2019-08-23T18:59:48Z</time>
      </trkpt>
      <trkpt lat="47.06634" lon="6.4744">
        <ele>1069</ele>
        <time>2019-08-23T18:59:51Z</time>
      </trkpt>
      <trkpt lat="47.06649" lon="6.47437">
        <ele>1069</ele>
        <time>2019-08-23T18:59:57Z</time>
      </trkpt>
      <trkpt lat="47.06677" lon="6.47428">
        <ele>1070</ele>
        <time>2019-08-23T19:00:03Z</time>
      </trkpt>
      <trkpt lat="47.06715" lon="6.47418">
        <ele>1073</ele>
        <time>2019-08-23T19:00:09Z</time>
      </trkpt>
      <trkpt lat="47.06725" lon="6.47413">
        <ele>1074</ele>
        <time>2019-08-23T19:00:12Z</time>
      </trkpt>
      <trkpt lat="47.06749" lon="6.47404">
        <ele>1076</ele>
        <time>2019-08-23T19:00:18Z</time>
      </trkpt>
      <trkpt lat="47.06765" lon="6.47399">
        <ele>1078</ele>
        <time>2019-08-23T19:00:24Z</time>
      </trkpt>
      <trkpt lat="47.0678" lon="6.47389">
        <ele>1079</ele>
        <time>2019-08-23T19:00:29Z</time>
      </trkpt>
      <trkpt lat="47.0678" lon="6.47389">
        <ele>1079</ele>
        <time>2019-08-23T19:00:32Z</time>
      </trkpt>
      <trkpt lat="47.0678" lon="6.47389">
        <ele>1079</ele>
        <time>2019-08-23T19:00:38Z</time>
      </trkpt>
      <trkpt lat="47.0678" lon="6.47389">
        <ele>1079</ele>
        <time>2019-08-23T19:00:44Z</time>
      </trkpt>
      <trkpt lat="47.0678" lon="6.47389">
        <ele>1079</ele>
        <time>2019-08-23T19:00:47Z</time>
      </trkpt>
      <trkpt lat="47.0678" lon="6.47389">
        <ele>1079</ele>
        <time>2019-08-23T19:01:05Z</time>
      </trkpt>
      <trkpt lat="47.0678" lon="6.47389">
        <ele>1080</ele>
        <time>2019-08-23T19:01:08Z</time>
      </trkpt>
      <trkpt lat="47.0678" lon="6.47389">
        <ele>1079</ele>
        <time>2019-08-23T19:01:23Z</time>
      </trkpt>
      <trkpt lat="47.0678" lon="6.47389">
        <ele>1080</ele>
        <time>2019-08-23T19:01:29Z</time>
      </trkpt>
      <trkpt lat="47.0678" lon="6.47389">
        <ele>1080</ele>
        <time>2019-08-23T19:01:44Z</time>
      </trkpt>
      <trkpt lat="47.0678" lon="6.47389">
        <ele>1080</ele>
        <time>2019-08-23T19:01:50Z</time>
      </trkpt>
      <trkpt lat="47.0678" lon="6.47389">
        <ele>1080</ele>
        <time>2019-08-23T19:02:11Z</time>
      </trkpt>
      <trkpt lat="47.0678" lon="6.47389">
        <ele>1080</ele>
        <time>2019-08-23T19:02:17Z</time>
      </trkpt>
      <trkpt lat="47.0678" lon="6.47389">
        <ele>1077</ele>
        <time>2019-08-23T19:02:20Z</time>
      </trkpt>
      <trkpt lat="47.0678" lon="6.47389">
        <ele>1080</ele>
        <time>2019-08-23T19:02:26Z</time>
      </trkpt>
      <trkpt lat="47.06781" lon="6.47387">
        <ele>1081</ele>
        <time>2019-08-23T19:02:46Z</time>
      </trkpt>
      <trkpt lat="47.06781" lon="6.47387">
        <ele>1080</ele>
        <time>2019-08-23T19:02:55Z</time>
      </trkpt>
      <trkpt lat="47.06783" lon="6.47385">
        <ele>1081</ele>
        <time>2019-08-23T19:03:07Z</time>
      </trkpt>
      <trkpt lat="47.06783" lon="6.47385">
        <ele>1080</ele>
        <time>2019-08-23T19:03:13Z</time>
      </trkpt>
      <trkpt lat="47.06783" lon="6.47385">
        <ele>1080</ele>
        <time>2019-08-23T19:03:16Z</time>
      </trkpt>
      <trkpt lat="47.06783" lon="6.47385">
        <ele>1080</ele>
        <time>2019-08-23T19:03:22Z</time>
      </trkpt>
      <trkpt lat="47.06783" lon="6.47385">
        <ele>1081</ele>
        <time>2019-08-23T19:03:28Z</time>
      </trkpt>
      <trkpt lat="47.06783" lon="6.47385">
        <ele>1081</ele>
        <time>2019-08-23T19:03:31Z</time>
      </trkpt>
      <trkpt lat="47.06783" lon="6.47385">
        <ele>1081</ele>
        <time>2019-08-23T19:03:37Z</time>
      </trkpt>
      <trkpt lat="47.06783" lon="6.47385">
        <ele>1079</ele>
        <time>2019-08-23T19:03:43Z</time>
      </trkpt>
      <trkpt lat="47.06787" lon="6.47378">
        <ele>1080</ele>
        <time>2019-08-23T19:03:49Z</time>
      </trkpt>
      <trkpt lat="47.06787" lon="6.47378">
        <ele>1081</ele>
        <time>2019-08-23T19:03:52Z</time>
      </trkpt>
      <trkpt lat="47.06787" lon="6.47378">
        <ele>1081</ele>
        <time>2019-08-23T19:04:04Z</time>
      </trkpt>
      <trkpt lat="47.06787" lon="6.47378">
        <ele>1081</ele>
        <time>2019-08-23T19:04:07Z</time>
      </trkpt>
      <trkpt lat="47.06792" lon="6.47338">
        <ele>1076.5</ele>
        <time>2019-08-23T19:04:13Z</time>
      </trkpt>
      <trkpt lat="47.06803" lon="6.47299">
        <ele>1075.7</ele>
        <time>2019-08-23T19:04:19Z</time>
      </trkpt>
      <trkpt lat="47.0684" lon="6.47325">
        <ele>1070</ele>
        <time>2019-08-23T19:04:25Z</time>
      </trkpt>
      <trkpt lat="47.0685" lon="6.47341">
        <ele>1069</ele>
        <time>2019-08-23T19:04:28Z</time>
      </trkpt>
      <trkpt lat="47.06881" lon="6.47404">
        <ele>1070</ele>
        <time>2019-08-23T19:04:34Z</time>
      </trkpt>
      <trkpt lat="47.06892" lon="6.47431">
        <ele>1069</ele>
        <time>2019-08-23T19:04:40Z</time>
      </trkpt>
      <trkpt lat="47.06933" lon="6.47491">
        <ele>1066</ele>
        <time>2019-08-23T19:05:00Z</time>
      </trkpt>
      <trkpt lat="47.06951" lon="6.47519">
        <ele>1064</ele>
        <time>2019-08-23T19:05:03Z</time>
      </trkpt>
      <trkpt lat="47.07013" lon="6.47612">
        <ele>1061</ele>
        <time>2019-08-23T19:05:09Z</time>
      </trkpt>
      <trkpt lat="47.07032" lon="6.47632">
        <ele>1061</ele>
        <time>2019-08-23T19:05:15Z</time>
      </trkpt>
      <trkpt lat="47.07042" lon="6.47637">
        <ele>1061</ele>
        <time>2019-08-23T19:05:24Z</time>
      </trkpt>
      <trkpt lat="47.07065" lon="6.47641">
        <ele>1060</ele>
        <time>2019-08-23T19:05:39Z</time>
      </trkpt>
      <trkpt lat="47.07091" lon="6.47645">
        <ele>1059</ele>
        <time>2019-08-23T19:05:57Z</time>
      </trkpt>
      <trkpt lat="47.07114" lon="6.47654">
        <ele>1058</ele>
        <time>2019-08-23T19:06:00Z</time>
      </trkpt>
      <trkpt lat="47.07132" lon="6.47672">
        <ele>1058</ele>
        <time>2019-08-23T19:06:21Z</time>
      </trkpt>
      <trkpt lat="47.07153" lon="6.47696">
        <ele>1057</ele>
        <time>2019-08-23T19:06:27Z</time>
      </trkpt>
      <trkpt lat="47.07163" lon="6.47701">
        <ele>1058</ele>
        <time>2019-08-23T19:06:33Z</time>
      </trkpt>
      <trkpt lat="47.07163" lon="6.47701">
        <ele>1058</ele>
        <time>2019-08-23T19:06:36Z</time>
      </trkpt>
      <trkpt lat="47.07163" lon="6.47701">
        <ele>1058</ele>
        <time>2019-08-23T19:06:42Z</time>
      </trkpt>
      <trkpt lat="47.0717" lon="6.47701">
        <ele>1058</ele>
        <time>2019-08-23T19:06:48Z</time>
      </trkpt>
      <trkpt lat="47.07182" lon="6.47699">
        <ele>1058</ele>
        <time>2019-08-23T19:06:54Z</time>
      </trkpt>
      <trkpt lat="47.07206" lon="6.47696">
        <ele>1056</ele>
        <time>2019-08-23T19:06:57Z</time>
      </trkpt>
      <trkpt lat="47.07235" lon="6.47698">
        <ele>1056</ele>
        <time>2019-08-23T19:07:03Z</time>
      </trkpt>
      <trkpt lat="47.07242" lon="6.47698">
        <ele>1055</ele>
        <time>2019-08-23T19:07:09Z</time>
      </trkpt>
      <trkpt lat="47.0725" lon="6.47718">
        <ele>1055</ele>
        <time>2019-08-23T19:07:18Z</time>
      </trkpt>
      <trkpt lat="47.0725" lon="6.47718">
        <ele>1056</ele>
        <time>2019-08-23T19:07:23Z</time>
      </trkpt>
      <trkpt lat="47.07252" lon="6.47719">
        <ele>1056</ele>
        <time>2019-08-23T19:07:29Z</time>
      </trkpt>
      <trkpt lat="47.07252" lon="6.47719">
        <ele>1056</ele>
        <time>2019-08-23T19:07:32Z</time>
      </trkpt>
      <trkpt lat="47.07252" lon="6.47719">
        <ele>1056</ele>
        <time>2019-08-23T19:07:38Z</time>
      </trkpt>
      <trkpt lat="47.07252" lon="6.47719">
        <ele>1056</ele>
        <time>2019-08-23T19:07:44Z</time>
      </trkpt>
      <trkpt lat="47.07252" lon="6.47719">
        <ele>1056</ele>
        <time>2019-08-23T19:07:47Z</time>
      </trkpt>
      <trkpt lat="47.07252" lon="6.47719">
        <ele>1056</ele>
        <time>2019-08-23T19:07:53Z</time>
      </trkpt>
      <trkpt lat="47.07271" lon="6.47734">
        <ele>1055</ele>
        <time>2019-08-23T19:07:59Z</time>
      </trkpt>
      <trkpt lat="47.07271" lon="6.47734">
        <ele>1055</ele>
        <time>2019-08-23T19:08:08Z</time>
      </trkpt>
      <trkpt lat="47.0729" lon="6.47742">
        <ele>1054</ele>
        <time>2019-08-23T19:08:14Z</time>
      </trkpt>
      <trkpt lat="47.07299" lon="6.47762">
        <ele>1051</ele>
        <time>2019-08-23T19:08:23Z</time>
      </trkpt>
      <trkpt lat="47.07302" lon="6.47778">
        <ele>1050</ele>
        <time>2019-08-23T19:08:35Z</time>
      </trkpt>
      <trkpt lat="47.07306" lon="6.47817">
        <ele>1048</ele>
        <time>2019-08-23T19:08:41Z</time>
      </trkpt>
      <trkpt lat="47.07313" lon="6.47834">
        <ele>1049</ele>
        <time>2019-08-23T19:08:50Z</time>
      </trkpt>
      <trkpt lat="47.07319" lon="6.47851">
        <ele>1050</ele>
        <time>2019-08-23T19:09:20Z</time>
      </trkpt>
      <trkpt lat="47.07319" lon="6.47851">
        <ele>1050</ele>
        <time>2019-08-23T19:09:26Z</time>
      </trkpt>
      <trkpt lat="47.07356" lon="6.47856">
        <ele>1047</ele>
        <time>2019-08-23T19:09:32Z</time>
      </trkpt>
      <trkpt lat="47.07389" lon="6.47864">
        <ele>1042</ele>
        <time>2019-08-23T19:09:37Z</time>
      </trkpt>
      <trkpt lat="47.07429" lon="6.47868">
        <ele>1037</ele>
        <time>2019-08-23T19:09:46Z</time>
      </trkpt>
      <trkpt lat="47.07449" lon="6.47866">
        <ele>1034</ele>
        <time>2019-08-23T19:10:01Z</time>
      </trkpt>
      <trkpt lat="47.07479" lon="6.47859">
        <ele>1032</ele>
        <time>2019-08-23T19:10:07Z</time>
      </trkpt>
      <trkpt lat="47.07503" lon="6.47836">
        <ele>1026</ele>
        <time>2019-08-23T19:10:16Z</time>
      </trkpt>
      <trkpt lat="47.07525" lon="6.47828">
        <ele>1026</ele>
        <time>2019-08-23T19:10:37Z</time>
      </trkpt>
      <trkpt lat="47.07525" lon="6.47828">
        <ele>1024</ele>
        <time>2019-08-23T19:10:43Z</time>
      </trkpt>
      <trkpt lat="47.07526" lon="6.4783">
        <ele>1025</ele>
        <time>2019-08-23T19:11:34Z</time>
      </trkpt>
      <trkpt lat="47.07526" lon="6.4783">
        <ele>1024</ele>
        <time>2019-08-23T19:11:40Z</time>
      </trkpt>
      <trkpt lat="47.07526" lon="6.4783">
        <ele>1024</ele>
        <time>2019-08-23T19:11:46Z</time>
      </trkpt>
      <trkpt lat="47.07526" lon="6.4783">
        <ele>1024</ele>
        <time>2019-08-23T19:11:49Z</time>
      </trkpt>
      <trkpt lat="47.07526" lon="6.4783">
        <ele>1024</ele>
        <time>2019-08-23T19:11:54Z</time>
      </trkpt>
      <trkpt lat="47.07545" lon="6.47835">
        <ele>1024</ele>
        <time>2019-08-23T19:12:00Z</time>
      </trkpt>
      <trkpt lat="47.07571" lon="6.47853">
        <ele>1022</ele>
        <time>2019-08-23T19:12:03Z</time>
      </trkpt>
      <trkpt lat="47.07587" lon="6.47863">
        <ele>1022</ele>
        <time>2019-08-23T19:12:09Z</time>
      </trkpt>
      <trkpt lat="47.07621" lon="6.47876">
        <ele>1019</ele>
        <time>2019-08-23T19:12:15Z</time>
      </trkpt>
      <trkpt lat="47.0764" lon="6.47873">
        <ele>1023.5</ele>
        <time>2019-08-23T19:12:21Z</time>
      </trkpt>
      <trkpt lat="47.07654" lon="6.47873">
        <ele>1017</ele>
        <time>2019-08-23T19:12:24Z</time>
      </trkpt>
      <trkpt lat="47.07654" lon="6.47873">
        <ele>1017</ele>
        <time>2019-08-23T19:12:36Z</time>
      </trkpt>
      <trkpt lat="47.07679" lon="6.47867">
        <ele>1018.5</ele>
        <time>2019-08-23T19:12:39Z</time>
      </trkpt>
      <trkpt lat="47.07705" lon="6.47859">
        <ele>1017.3</ele>
        <time>2019-08-23T19:12:45Z</time>
      </trkpt>
      <trkpt lat="47.07726" lon="6.4785">
        <ele>1015.8</ele>
        <time>2019-08-23T19:12:51Z</time>
      </trkpt>
      <trkpt lat="47.07735" lon="6.47816">
        <ele>1014.2</ele>
        <time>2019-08-23T19:12:57Z</time>
      </trkpt>
      <trkpt lat="47.07732" lon="6.47788">
        <ele>1014.2</ele>
        <time>2019-08-23T19:13:00Z</time>
      </trkpt>
      <trkpt lat="47.07722" lon="6.4773">
        <ele>1012.4</ele>
        <time>2019-08-23T19:13:06Z</time>
      </trkpt>
      <trkpt lat="47.07717" lon="6.47672">
        <ele>1011.5</ele>
        <time>2019-08-23T19:13:18Z</time>
      </trkpt>
      <trkpt lat="47.07743" lon="6.47647">
        <ele>1004.5</ele>
        <time>2019-08-23T19:13:21Z</time>
      </trkpt>
      <trkpt lat="47.07771" lon="6.47639">
        <ele>994</ele>
        <time>2019-08-23T19:13:27Z</time>
      </trkpt>
      <trkpt lat="47.07803" lon="6.47631">
        <ele>992</ele>
        <time>2019-08-23T19:13:33Z</time>
      </trkpt>
      <trkpt lat="47.07829" lon="6.47635">
        <ele>987</ele>
        <time>2019-08-23T19:13:36Z</time>
      </trkpt>
      <trkpt lat="47.07875" lon="6.47654">
        <ele>985</ele>
        <time>2019-08-23T19:13:42Z</time>
      </trkpt>
      <trkpt lat="47.07886" lon="6.47656">
        <ele>982</ele>
        <time>2019-08-23T19:13:48Z</time>
      </trkpt>
      <trkpt lat="47.07903" lon="6.47664">
        <ele>980</ele>
        <time>2019-08-23T19:13:54Z</time>
      </trkpt>
      <trkpt lat="47.07921" lon="6.47679">
        <ele>977</ele>
        <time>2019-08-23T19:14:03Z</time>
      </trkpt>
      <trkpt lat="47.07926" lon="6.47684">
        <ele>977</ele>
        <time>2019-08-23T19:14:09Z</time>
      </trkpt>
      <trkpt lat="47.07932" lon="6.4771">
        <ele>977</ele>
        <time>2019-08-23T19:14:17Z</time>
      </trkpt>
      <trkpt lat="47.07935" lon="6.47737">
        <ele>983</ele>
        <time>2019-08-23T19:14:23Z</time>
      </trkpt>
      <trkpt lat="47.07945" lon="6.47766">
        <ele>978</ele>
        <time>2019-08-23T19:14:29Z</time>
      </trkpt>
      <trkpt lat="47.07951" lon="6.47784">
        <ele>978</ele>
        <time>2019-08-23T19:14:32Z</time>
      </trkpt>
      <trkpt lat="47.07963" lon="6.47812">
        <ele>978</ele>
        <time>2019-08-23T19:14:38Z</time>
      </trkpt>
      <trkpt lat="47.07992" lon="6.47872">
        <ele>978</ele>
        <time>2019-08-23T19:14:44Z</time>
      </trkpt>
      <trkpt lat="47.08008" lon="6.47911">
        <ele>978</ele>
        <time>2019-08-23T19:14:47Z</time>
      </trkpt>
      <trkpt lat="47.08036" lon="6.47992">
        <ele>976</ele>
        <time>2019-08-23T19:14:53Z</time>
      </trkpt>
      <trkpt lat="47.08058" lon="6.48047">
        <ele>975</ele>
        <time>2019-08-23T19:14:59Z</time>
      </trkpt>
      <trkpt lat="47.08062" lon="6.48075">
        <ele>974.5</ele>
        <time>2019-08-23T19:15:05Z</time>
      </trkpt>
      <trkpt lat="47.08081" lon="6.48102">
        <ele>976</ele>
        <time>2019-08-23T19:15:08Z</time>
      </trkpt>
      <trkpt lat="47.08106" lon="6.48132">
        <ele>977</ele>
        <time>2019-08-23T19:15:20Z</time>
      </trkpt>
      <trkpt lat="47.08126" lon="6.48168">
        <ele>977</ele>
        <time>2019-08-23T19:15:26Z</time>
      </trkpt>
      <trkpt lat="47.0814" lon="6.48203">
        <ele>980</ele>
        <time>2019-08-23T19:15:29Z</time>
      </trkpt>
      <trkpt lat="47.08144" lon="6.48219">
        <ele>980</ele>
        <time>2019-08-23T19:15:35Z</time>
      </trkpt>
      <trkpt lat="47.08142" lon="6.48243">
        <ele>982</ele>
        <time>2019-08-23T19:15:41Z</time>
      </trkpt>
      <trkpt lat="47.08132" lon="6.48272">
        <ele>982</ele>
        <time>2019-08-23T19:15:44Z</time>
      </trkpt>
      <trkpt lat="47.08129" lon="6.48286">
        <ele>983</ele>
        <time>2019-08-23T19:15:50Z</time>
      </trkpt>
      <trkpt lat="47.08134" lon="6.48307">
        <ele>984</ele>
        <time>2019-08-23T19:15:56Z</time>
      </trkpt>
      <trkpt lat="47.08146" lon="6.48321">
        <ele>984</ele>
        <time>2019-08-23T19:16:02Z</time>
      </trkpt>
      <trkpt lat="47.08151" lon="6.48331">
        <ele>984</ele>
        <time>2019-08-23T19:16:05Z</time>
      </trkpt>
      <trkpt lat="47.08151" lon="6.48331">
        <ele>984</ele>
        <time>2019-08-23T19:16:11Z</time>
      </trkpt>
      <trkpt lat="47.08151" lon="6.48331">
        <ele>983</ele>
        <time>2019-08-23T19:16:17Z</time>
      </trkpt>
      <trkpt lat="47.08151" lon="6.48331">
        <ele>983</ele>
        <time>2019-08-23T19:16:20Z</time>
      </trkpt>
      <trkpt lat="47.08151" lon="6.48331">
        <ele>983</ele>
        <time>2019-08-23T19:16:26Z</time>
      </trkpt>
      <trkpt lat="47.08151" lon="6.48331">
        <ele>983</ele>
        <time>2019-08-23T19:16:31Z</time>
      </trkpt>
      <trkpt lat="47.08151" lon="6.48331">
        <ele>984</ele>
        <time>2019-08-23T19:16:40Z</time>
      </trkpt>
      <trkpt lat="47.08152" lon="6.48329">
        <ele>984</ele>
        <time>2019-08-23T19:16:52Z</time>
      </trkpt>
      <trkpt lat="47.08152" lon="6.48329">
        <ele>984</ele>
        <time>2019-08-23T19:16:55Z</time>
      </trkpt>
      <trkpt lat="47.08152" lon="6.48329">
        <ele>983</ele>
        <time>2019-08-23T19:17:01Z</time>
      </trkpt>
      <trkpt lat="47.08152" lon="6.48329">
        <ele>984</ele>
        <time>2019-08-23T19:17:07Z</time>
      </trkpt>
      <trkpt lat="47.08152" lon="6.48329">
        <ele>984</ele>
        <time>2019-08-23T19:17:13Z</time>
      </trkpt>
      <trkpt lat="47.08152" lon="6.48329">
        <ele>984</ele>
        <time>2019-08-23T19:17:16Z</time>
      </trkpt>
      <trkpt lat="47.08152" lon="6.48329">
        <ele>983</ele>
        <time>2019-08-23T19:17:34Z</time>
      </trkpt>
      <trkpt lat="47.08152" lon="6.48329">
        <ele>984</ele>
        <time>2019-08-23T19:17:37Z</time>
      </trkpt>
      <trkpt lat="47.08152" lon="6.48329">
        <ele>983</ele>
        <time>2019-08-23T19:17:43Z</time>
      </trkpt>
      <trkpt lat="47.08152" lon="6.48329">
        <ele>983</ele>
        <time>2019-08-23T19:17:49Z</time>
      </trkpt>
      <trkpt lat="47.08152" lon="6.48329">
        <ele>982</ele>
        <time>2019-08-23T19:17:52Z</time>
      </trkpt>
      <trkpt lat="47.08152" lon="6.48329">
        <ele>983</ele>
        <time>2019-08-23T19:18:25Z</time>
      </trkpt>
      <trkpt lat="47.08152" lon="6.48344">
        <ele>985</ele>
        <time>2019-08-23T19:18:28Z</time>
      </trkpt>
      <trkpt lat="47.08154" lon="6.4837">
        <ele>985</ele>
        <time>2019-08-23T19:18:34Z</time>
      </trkpt>
      <trkpt lat="47.08158" lon="6.48405">
        <ele>985</ele>
        <time>2019-08-23T19:18:40Z</time>
      </trkpt>
      <trkpt lat="47.0818" lon="6.48436">
        <ele>983</ele>
        <time>2019-08-23T19:18:45Z</time>
      </trkpt>
      <trkpt lat="47.08207" lon="6.48464">
        <ele>981</ele>
        <time>2019-08-23T19:18:48Z</time>
      </trkpt>
      <trkpt lat="47.08223" lon="6.48475">
        <ele>980</ele>
        <time>2019-08-23T19:18:54Z</time>
      </trkpt>
      <trkpt lat="47.08255" lon="6.48496">
        <ele>977</ele>
        <time>2019-08-23T19:19:00Z</time>
      </trkpt>
      <trkpt lat="47.08272" lon="6.48537">
        <ele>976</ele>
        <time>2019-08-23T19:19:03Z</time>
      </trkpt>
      <trkpt lat="47.08278" lon="6.48555">
        <ele>975</ele>
        <time>2019-08-23T19:19:09Z</time>
      </trkpt>
      <trkpt lat="47.08288" lon="6.48586">
        <ele>976</ele>
        <time>2019-08-23T19:19:24Z</time>
      </trkpt>
      <trkpt lat="47.08299" lon="6.4861">
        <ele>975</ele>
        <time>2019-08-23T19:19:57Z</time>
      </trkpt>
      <trkpt lat="47.0831" lon="6.48628">
        <ele>974</ele>
        <time>2019-08-23T19:20:00Z</time>
      </trkpt>
      <trkpt lat="47.0831" lon="6.48628">
        <ele>973</ele>
        <time>2019-08-23T19:20:06Z</time>
      </trkpt>
      <trkpt lat="47.08316" lon="6.48631">
        <ele>972</ele>
        <time>2019-08-23T19:20:12Z</time>
      </trkpt>
      <trkpt lat="47.08316" lon="6.48634">
        <ele>972</ele>
        <time>2019-08-23T19:20:18Z</time>
      </trkpt>
      <trkpt lat="47.08316" lon="6.48634">
        <ele>972</ele>
        <time>2019-08-23T19:20:21Z</time>
      </trkpt>
      <trkpt lat="47.08316" lon="6.48634">
        <ele>972</ele>
        <time>2019-08-23T19:20:33Z</time>
      </trkpt>
      <trkpt lat="47.08316" lon="6.48634">
        <ele>972</ele>
        <time>2019-08-23T19:20:36Z</time>
      </trkpt>
      <trkpt lat="47.08316" lon="6.48634">
        <ele>972</ele>
        <time>2019-08-23T19:20:42Z</time>
      </trkpt>
      <trkpt lat="47.08316" lon="6.48634">
        <ele>972</ele>
        <time>2019-08-23T19:20:48Z</time>
      </trkpt>
      <trkpt lat="47.08316" lon="6.48634">
        <ele>972</ele>
        <time>2019-08-23T19:20:57Z</time>
      </trkpt>
      <trkpt lat="47.08316" lon="6.48634">
        <ele>973</ele>
        <time>2019-08-23T19:21:17Z</time>
      </trkpt>
      <trkpt lat="47.08315" lon="6.48631">
        <ele>973</ele>
        <time>2019-08-23T19:21:23Z</time>
      </trkpt>
      <trkpt lat="47.08315" lon="6.48631">
        <ele>973</ele>
        <time>2019-08-23T19:21:32Z</time>
      </trkpt>
      <trkpt lat="47.08315" lon="6.48631">
        <ele>973</ele>
        <time>2019-08-23T19:21:44Z</time>
      </trkpt>
      <trkpt lat="47.08315" lon="6.48631">
        <ele>973</ele>
        <time>2019-08-23T19:21:50Z</time>
      </trkpt>
      <trkpt lat="47.08317" lon="6.48633">
        <ele>973</ele>
        <time>2019-08-23T19:21:59Z</time>
      </trkpt>
      <trkpt lat="47.08317" lon="6.48633">
        <ele>973</ele>
        <time>2019-08-23T19:22:05Z</time>
      </trkpt>
      <trkpt lat="47.08339" lon="6.48665">
        <ele>972</ele>
        <time>2019-08-23T19:22:08Z</time>
      </trkpt>
      <trkpt lat="47.08389" lon="6.48747">
        <ele>970</ele>
        <time>2019-08-23T19:22:14Z</time>
      </trkpt>
      <trkpt lat="47.08395" lon="6.48761">
        <ele>971</ele>
        <time>2019-08-23T19:22:20Z</time>
      </trkpt>
      <trkpt lat="47.08408" lon="6.48794">
        <ele>972</ele>
        <time>2019-08-23T19:22:26Z</time>
      </trkpt>
      <trkpt lat="47.08437" lon="6.48816">
        <ele>969</ele>
        <time>2019-08-23T19:23:03Z</time>
      </trkpt>
      <trkpt lat="47.08475" lon="6.4886">
        <ele>964</ele>
        <time>2019-08-23T19:23:06Z</time>
      </trkpt>
      <trkpt lat="47.08491" lon="6.48891">
        <ele>961</ele>
        <time>2019-08-23T19:23:12Z</time>
      </trkpt>
      <trkpt lat="47.08502" lon="6.4897">
        <ele>946.4</ele>
        <time>2019-08-23T19:23:21Z</time>
      </trkpt>
      <trkpt lat="47.08509" lon="6.49036">
        <ele>946</ele>
        <time>2019-08-23T19:23:26Z</time>
      </trkpt>
      <trkpt lat="47.08538" lon="6.49081">
        <ele>949</ele>
        <time>2019-08-23T19:23:32Z</time>
      </trkpt>
      <trkpt lat="47.08551" lon="6.4909">
        <ele>947</ele>
        <time>2019-08-23T19:23:53Z</time>
      </trkpt>
      <trkpt lat="47.08602" lon="6.49102">
        <ele>941</ele>
        <time>2019-08-23T19:23:59Z</time>
      </trkpt>
      <trkpt lat="47.08617" lon="6.49109">
        <ele>937</ele>
        <time>2019-08-23T19:24:08Z</time>
      </trkpt>
      <trkpt lat="47.08626" lon="6.49114">
        <ele>937</ele>
        <time>2019-08-23T19:24:17Z</time>
      </trkpt>
      <trkpt lat="47.0866" lon="6.49083">
        <ele>929</ele>
        <time>2019-08-23T19:24:23Z</time>
      </trkpt>
      <trkpt lat="47.0866" lon="6.49083">
        <ele>928</ele>
        <time>2019-08-23T19:24:29Z</time>
      </trkpt>
      <trkpt lat="47.0866" lon="6.49083">
        <ele>928</ele>
        <time>2019-08-23T19:24:38Z</time>
      </trkpt>
      <trkpt lat="47.0866" lon="6.49083">
        <ele>927</ele>
        <time>2019-08-23T19:24:50Z</time>
      </trkpt>
      <trkpt lat="47.0866" lon="6.49086">
        <ele>927</ele>
        <time>2019-08-23T19:24:53Z</time>
      </trkpt>
      <trkpt lat="47.0866" lon="6.49086">
        <ele>927</ele>
        <time>2019-08-23T19:25:11Z</time>
      </trkpt>
      <trkpt lat="47.0866" lon="6.49086">
        <ele>928</ele>
        <time>2019-08-23T19:25:20Z</time>
      </trkpt>
      <trkpt lat="47.0866" lon="6.49086">
        <ele>929</ele>
        <time>2019-08-23T19:25:29Z</time>
      </trkpt>
      <trkpt lat="47.0866" lon="6.49086">
        <ele>929</ele>
        <time>2019-08-23T19:25:40Z</time>
      </trkpt>
      <trkpt lat="47.0866" lon="6.49086">
        <ele>928</ele>
        <time>2019-08-23T19:26:01Z</time>
      </trkpt>
      <trkpt lat="47.08683" lon="6.49078">
        <ele>927</ele>
        <time>2019-08-23T19:27:07Z</time>
      </trkpt>
      <trkpt lat="47.08686" lon="6.49059">
        <ele>916.2</ele>
        <time>2019-08-23T19:27:19Z</time>
      </trkpt>
      <trkpt lat="47.08681" lon="6.49038">
        <ele>915.9</ele>
        <time>2019-08-23T19:27:55Z</time>
      </trkpt>
      <trkpt lat="47.08678" lon="6.49002">
        <ele>916.7</ele>
        <time>2019-08-23T19:27:57Z</time>
      </trkpt>
      <trkpt lat="47.08678" lon="6.48982">
        <ele>920</ele>
        <time>2019-08-23T19:28:03Z</time>
      </trkpt>
      <trkpt lat="47.08678" lon="6.48982">
        <ele>920</ele>
        <time>2019-08-23T19:28:09Z</time>
      </trkpt>
      <trkpt lat="47.08678" lon="6.48982">
        <ele>920</ele>
        <time>2019-08-23T19:28:18Z</time>
      </trkpt>
      <trkpt lat="47.08678" lon="6.48982">
        <ele>920</ele>
        <time>2019-08-23T19:28:30Z</time>
      </trkpt>
      <trkpt lat="47.08678" lon="6.48982">
        <ele>920</ele>
        <time>2019-08-23T19:28:39Z</time>
      </trkpt>
      <trkpt lat="47.08678" lon="6.48982">
        <ele>920</ele>
        <time>2019-08-23T19:28:52Z</time>
      </trkpt>
      <trkpt lat="47.0869" lon="6.48937">
        <ele>919</ele>
        <time>2019-08-23T19:28:55Z</time>
      </trkpt>
      <trkpt lat="47.08695" lon="6.48918">
        <ele>918</ele>
        <time>2019-08-23T19:29:01Z</time>
      </trkpt>
      <trkpt lat="47.08708" lon="6.48876">
        <ele>915</ele>
        <time>2019-08-23T19:29:28Z</time>
      </trkpt>
      <trkpt lat="47.08718" lon="6.48851">
        <ele>914</ele>
        <time>2019-08-23T19:29:37Z</time>
      </trkpt>
      <trkpt lat="47.08734" lon="6.48858">
        <ele>915</ele>
        <time>2019-08-23T19:29:46Z</time>
      </trkpt>
      <trkpt lat="47.08752" lon="6.48817">
        <ele>909</ele>
        <time>2019-08-23T19:29:58Z</time>
      </trkpt>
      <trkpt lat="47.08752" lon="6.48791">
        <ele>906.7</ele>
        <time>2019-08-23T19:30:08Z</time>
      </trkpt>
      <trkpt lat="47.08756" lon="6.48766">
        <ele>906.2</ele>
        <time>2019-08-23T19:30:19Z</time>
      </trkpt>
      <trkpt lat="47.0876" lon="6.48733">
        <ele>903</ele>
        <time>2019-08-23T19:30:34Z</time>
      </trkpt>
      <trkpt lat="47.08756" lon="6.48703">
        <ele>900.5</ele>
        <time>2019-08-23T19:30:43Z</time>
      </trkpt>
      <trkpt lat="47.08759" lon="6.48672">
        <ele>899</ele>
        <time>2019-08-23T19:30:49Z</time>
      </trkpt>
      <trkpt lat="47.0877" lon="6.48647">
        <ele>895</ele>
        <time>2019-08-23T19:31:01Z</time>
      </trkpt>
      <trkpt lat="47.08788" lon="6.48578">
        <ele>889</ele>
        <time>2019-08-23T19:31:16Z</time>
      </trkpt>
      <trkpt lat="47.08808" lon="6.48539">
        <ele>892</ele>
        <time>2019-08-23T19:31:25Z</time>
      </trkpt>
      <trkpt lat="47.08835" lon="6.48437">
        <ele>877</ele>
        <time>2019-08-23T19:31:37Z</time>
      </trkpt>
      <trkpt lat="47.08846" lon="6.48398">
        <ele>872.1</ele>
        <time>2019-08-23T19:31:46Z</time>
      </trkpt>
      <trkpt lat="47.08876" lon="6.48321">
        <ele>868</ele>
        <time>2019-08-23T19:31:55Z</time>
      </trkpt>
      <trkpt lat="47.08895" lon="6.48284">
        <ele>862</ele>
        <time>2019-08-23T19:32:01Z</time>
      </trkpt>
      <trkpt lat="47.08902" lon="6.48258">
        <ele>858.2</ele>
        <time>2019-08-23T19:32:28Z</time>
      </trkpt>
      <trkpt lat="47.08915" lon="6.48217">
        <ele>852.7</ele>
        <time>2019-08-23T19:32:42Z</time>
      </trkpt>
      <trkpt lat="47.08928" lon="6.48167">
        <ele>846.5</ele>
        <time>2019-08-23T19:32:57Z</time>
      </trkpt>
      <trkpt lat="47.08922" lon="6.48114">
        <ele>847</ele>
        <time>2019-08-23T19:33:09Z</time>
      </trkpt>
      <trkpt lat="47.08899" lon="6.48059">
        <ele>834.9</ele>
        <time>2019-08-23T19:33:12Z</time>
      </trkpt>
      <trkpt lat="47.08916" lon="6.48017">
        <ele>832.2</ele>
        <time>2019-08-23T19:33:27Z</time>
      </trkpt>
      <trkpt lat="47.08933" lon="6.47982">
        <ele>827.6</ele>
        <time>2019-08-23T19:33:39Z</time>
      </trkpt>
      <trkpt lat="47.08963" lon="6.47913">
        <ele>836</ele>
        <time>2019-08-23T19:34:00Z</time>
      </trkpt>
      <trkpt lat="47.08971" lon="6.47886">
        <ele>834</ele>
        <time>2019-08-23T19:34:09Z</time>
      </trkpt>
      <trkpt lat="47.08986" lon="6.47819">
        <ele>832</ele>
        <time>2019-08-23T19:34:24Z</time>
      </trkpt>
      <trkpt lat="47.09024" lon="6.47725">
        <ele>827</ele>
        <time>2019-08-23T19:34:50Z</time>
      </trkpt>
      <trkpt lat="47.09043" lon="6.47685">
        <ele>825</ele>
        <time>2019-08-23T19:35:20Z</time>
      </trkpt>
      <trkpt lat="47.09063" lon="6.47645">
        <ele>825</ele>
        <time>2019-08-23T19:35:26Z</time>
      </trkpt>
      <trkpt lat="47.09068" lon="6.47637">
        <ele>826.8</ele>
        <time>2019-08-23T19:36:29Z</time>
      </trkpt>
      <trkpt lat="47.09095" lon="6.47747">
        <ele>828</ele>
        <time>2019-08-23T19:36:44Z</time>
      </trkpt>
      <trkpt lat="47.09103" lon="6.47786">
        <ele>831</ele>
        <time>2019-08-23T19:36:50Z</time>
      </trkpt>
      <trkpt lat="47.09116" lon="6.47844">
        <ele>831</ele>
        <time>2019-08-23T19:37:05Z</time>
      </trkpt>
      <trkpt lat="47.09135" lon="6.47904">
        <ele>832</ele>
        <time>2019-08-23T19:37:08Z</time>
      </trkpt>
      <trkpt lat="47.09146" lon="6.47943">
        <ele>832</ele>
        <time>2019-08-23T19:38:20Z</time>
      </trkpt>
      <trkpt lat="47.09162" lon="6.47983">
        <ele>832</ele>
        <time>2019-08-23T19:38:38Z</time>
      </trkpt>
      <trkpt lat="47.09183" lon="6.48039">
        <ele>833</ele>
        <time>2019-08-23T19:38:41Z</time>
      </trkpt>
      <trkpt lat="47.09215" lon="6.48115">
        <ele>834</ele>
        <time>2019-08-23T19:39:37Z</time>
      </trkpt>
      <trkpt lat="47.09224" lon="6.48133">
        <ele>834</ele>
        <time>2019-08-23T19:39:52Z</time>
      </trkpt>
      <trkpt lat="47.09255" lon="6.48192">
        <ele>836</ele>
        <time>2019-08-23T19:41:10Z</time>
      </trkpt>
      <trkpt lat="47.09268" lon="6.48222">
        <ele>837</ele>
        <time>2019-08-23T19:41:16Z</time>
      </trkpt>
      <trkpt lat="47.0929" lon="6.48265">
        <ele>838</ele>
        <time>2019-08-23T19:41:22Z</time>
      </trkpt>
      <trkpt lat="47.09305" lon="6.48306">
        <ele>840</ele>
        <time>2019-08-23T19:41:43Z</time>
      </trkpt>
      <trkpt lat="47.09316" lon="6.48338">
        <ele>841</ele>
        <time>2019-08-23T19:41:57Z</time>
      </trkpt>
      <trkpt lat="47.09334" lon="6.48331">
        <ele>845</ele>
        <time>2019-08-23T19:42:00Z</time>
      </trkpt>
      <trkpt lat="47.09334" lon="6.48331">
        <ele>846</ele>
        <time>2019-08-23T19:42:06Z</time>
      </trkpt>
      <trkpt lat="47.09339" lon="6.48322">
        <ele>847</ele>
        <time>2019-08-23T19:42:12Z</time>
      </trkpt>
      <trkpt lat="47.09339" lon="6.48322">
        <ele>848</ele>
        <time>2019-08-23T19:42:18Z</time>
      </trkpt>
      <trkpt lat="47.09336" lon="6.48276">
        <ele>851</ele>
        <time>2019-08-23T19:42:21Z</time>
      </trkpt>
      <trkpt lat="47.09328" lon="6.48236">
        <ele>853</ele>
        <time>2019-08-23T19:42:27Z</time>
      </trkpt>
      <trkpt lat="47.09327" lon="6.48225">
        <ele>854</ele>
        <time>2019-08-23T19:43:24Z</time>
      </trkpt>
      <trkpt lat="47.09324" lon="6.48199">
        <ele>855</ele>
        <time>2019-08-23T19:43:30Z</time>
      </trkpt>
      <trkpt lat="47.09322" lon="6.48178">
        <ele>856</ele>
        <time>2019-08-23T19:43:33Z</time>
      </trkpt>
      <trkpt lat="47.09323" lon="6.48147">
        <ele>859</ele>
        <time>2019-08-23T19:43:39Z</time>
      </trkpt>
      <trkpt lat="47.09326" lon="6.48163">
        <ele>859</ele>
        <time>2019-08-23T19:43:45Z</time>
      </trkpt>
      <trkpt lat="47.0933" lon="6.48183">
        <ele>854</ele>
        <time>2019-08-23T19:43:51Z</time>
      </trkpt>
      <trkpt lat="47.09341" lon="6.48214">
        <ele>859</ele>
        <time>2019-08-23T19:44:00Z</time>
      </trkpt>
      <trkpt lat="47.0935" lon="6.48249">
        <ele>860.4</ele>
        <time>2019-08-23T19:44:05Z</time>
      </trkpt>
      <trkpt lat="47.09364" lon="6.48285">
        <ele>861</ele>
        <time>2019-08-23T19:44:08Z</time>
      </trkpt>
      <trkpt lat="47.09383" lon="6.48341">
        <ele>862</ele>
        <time>2019-08-23T19:44:14Z</time>
      </trkpt>
      <trkpt lat="47.094" lon="6.48389">
        <ele>860.1</ele>
        <time>2019-08-23T19:44:20Z</time>
      </trkpt>
      <trkpt lat="47.09407" lon="6.48411">
        <ele>863.1</ele>
        <time>2019-08-23T19:44:26Z</time>
      </trkpt>
      <trkpt lat="47.09422" lon="6.48429">
        <ele>873</ele>
        <time>2019-08-23T19:44:29Z</time>
      </trkpt>
      <trkpt lat="47.09434" lon="6.4845">
        <ele>877</ele>
        <time>2019-08-23T19:44:35Z</time>
      </trkpt>
      <trkpt lat="47.0944" lon="6.4847">
        <ele>878</ele>
        <time>2019-08-23T19:44:41Z</time>
      </trkpt>
      <trkpt lat="47.09451" lon="6.48491">
        <ele>880</ele>
        <time>2019-08-23T19:44:44Z</time>
      </trkpt>
      <trkpt lat="47.09456" lon="6.48511">
        <ele>882</ele>
        <time>2019-08-23T19:44:50Z</time>
      </trkpt>
      <trkpt lat="47.09466" lon="6.48534">
        <ele>885</ele>
        <time>2019-08-23T19:44:56Z</time>
      </trkpt>
      <trkpt lat="47.0948" lon="6.48564">
        <ele>886</ele>
        <time>2019-08-23T19:45:02Z</time>
      </trkpt>
      <trkpt lat="47.09485" lon="6.48595">
        <ele>876.3</ele>
        <time>2019-08-23T19:45:11Z</time>
      </trkpt>
      <trkpt lat="47.09493" lon="6.48628">
        <ele>875.2</ele>
        <time>2019-08-23T19:45:23Z</time>
      </trkpt>
      <trkpt lat="47.09499" lon="6.48664">
        <ele>884.2</ele>
        <time>2019-08-23T19:45:26Z</time>
      </trkpt>
      <trkpt lat="47.09506" lon="6.48687">
        <ele>893</ele>
        <time>2019-08-23T19:45:32Z</time>
      </trkpt>
      <trkpt lat="47.09525" lon="6.48738">
        <ele>898</ele>
        <time>2019-08-23T19:45:38Z</time>
      </trkpt>
      <trkpt lat="47.09535" lon="6.4876">
        <ele>900</ele>
        <time>2019-08-23T19:45:41Z</time>
      </trkpt>
      <trkpt lat="47.09564" lon="6.48825">
        <ele>888.7</ele>
        <time>2019-08-23T19:45:47Z</time>
      </trkpt>
      <trkpt lat="47.09581" lon="6.48859">
        <ele>885.6</ele>
        <time>2019-08-23T19:45:53Z</time>
      </trkpt>
      <trkpt lat="47.09598" lon="6.48892">
        <ele>890.1</ele>
        <time>2019-08-23T19:45:59Z</time>
      </trkpt>
      <trkpt lat="47.09617" lon="6.48934">
        <ele>903</ele>
        <time>2019-08-23T19:46:02Z</time>
      </trkpt>
      <trkpt lat="47.09644" lon="6.48993">
        <ele>886.2</ele>
        <time>2019-08-23T19:46:08Z</time>
      </trkpt>
      <trkpt lat="47.09671" lon="6.4905">
        <ele>882.4</ele>
        <time>2019-08-23T19:46:14Z</time>
      </trkpt>
      <trkpt lat="47.09702" lon="6.49113">
        <ele>897</ele>
        <time>2019-08-23T19:46:17Z</time>
      </trkpt>
      <trkpt lat="47.09745" lon="6.49206">
        <ele>870.2</ele>
        <time>2019-08-23T19:46:22Z</time>
      </trkpt>
      <trkpt lat="47.09787" lon="6.49274">
        <ele>868.3</ele>
        <time>2019-08-23T19:46:28Z</time>
      </trkpt>
      <trkpt lat="47.09837" lon="6.49356">
        <ele>864.6</ele>
        <time>2019-08-23T19:46:34Z</time>
      </trkpt>
      <trkpt lat="47.09857" lon="6.49394">
        <ele>861.1</ele>
        <time>2019-08-23T19:46:37Z</time>
      </trkpt>
      <trkpt lat="47.09876" lon="6.49452">
        <ele>855</ele>
        <time>2019-08-23T19:46:43Z</time>
      </trkpt>
      <trkpt lat="47.09885" lon="6.49511">
        <ele>850</ele>
        <time>2019-08-23T19:46:49Z</time>
      </trkpt>
      <trkpt lat="47.09901" lon="6.49546">
        <ele>849.9</ele>
        <time>2019-08-23T19:46:52Z</time>
      </trkpt>
      <trkpt lat="47.09922" lon="6.49552">
        <ele>848</ele>
        <time>2019-08-23T19:46:58Z</time>
      </trkpt>
      <trkpt lat="47.09932" lon="6.49526">
        <ele>849.1</ele>
        <time>2019-08-23T19:47:04Z</time>
      </trkpt>
      <trkpt lat="47.09954" lon="6.4947">
        <ele>852</ele>
        <time>2019-08-23T19:47:10Z</time>
      </trkpt>
      <trkpt lat="47.09967" lon="6.49453">
        <ele>852.4</ele>
        <time>2019-08-23T19:47:13Z</time>
      </trkpt>
      <trkpt lat="47.09998" lon="6.49422">
        <ele>852.1</ele>
        <time>2019-08-23T19:47:19Z</time>
      </trkpt>
      <trkpt lat="47.10036" lon="6.49398">
        <ele>850.4</ele>
        <time>2019-08-23T19:47:25Z</time>
      </trkpt>
      <trkpt lat="47.10067" lon="6.49368">
        <ele>848.7</ele>
        <time>2019-08-23T19:47:31Z</time>
      </trkpt>
      <trkpt lat="47.10084" lon="6.49336">
        <ele>842.5</ele>
        <time>2019-08-23T19:47:34Z</time>
      </trkpt>
      <trkpt lat="47.10093" lon="6.49289">
        <ele>838.8</ele>
        <time>2019-08-23T19:47:40Z</time>
      </trkpt>
      <trkpt lat="47.10122" lon="6.49259">
        <ele>837</ele>
        <time>2019-08-23T19:47:46Z</time>
      </trkpt>
      <trkpt lat="47.10129" lon="6.49219">
        <ele>836.8</ele>
        <time>2019-08-23T19:47:49Z</time>
      </trkpt>
      <trkpt lat="47.1014" lon="6.49173">
        <ele>835</ele>
        <time>2019-08-23T19:47:55Z</time>
      </trkpt>
      <trkpt lat="47.10145" lon="6.49107">
        <ele>829.6</ele>
        <time>2019-08-23T19:48:01Z</time>
      </trkpt>
      <trkpt lat="47.10158" lon="6.49065">
        <ele>821.5</ele>
        <time>2019-08-23T19:48:07Z</time>
      </trkpt>
      <trkpt lat="47.10177" lon="6.49051">
        <ele>811.1</ele>
        <time>2019-08-23T19:48:10Z</time>
      </trkpt>
      <trkpt lat="47.10213" lon="6.4904">
        <ele>808.1</ele>
        <time>2019-08-23T19:48:16Z</time>
      </trkpt>
      <trkpt lat="47.10245" lon="6.49041">
        <ele>806.4</ele>
        <time>2019-08-23T19:48:22Z</time>
      </trkpt>
      <trkpt lat="47.10275" lon="6.49086">
        <ele>809</ele>
        <time>2019-08-23T19:48:25Z</time>
      </trkpt>
      <trkpt lat="47.10295" lon="6.49098">
        <ele>799.5</ele>
        <time>2019-08-23T19:48:31Z</time>
      </trkpt>
      <trkpt lat="47.1034" lon="6.49112">
        <ele>791.6</ele>
        <time>2019-08-23T19:48:36Z</time>
      </trkpt>
      <trkpt lat="47.10409" lon="6.49088">
        <ele>784.9</ele>
        <time>2019-08-23T19:48:42Z</time>
      </trkpt>
      <trkpt lat="47.10426" lon="6.49094">
        <ele>781.3</ele>
        <time>2019-08-23T19:48:45Z</time>
      </trkpt>
      <trkpt lat="47.10458" lon="6.49148">
        <ele>790</ele>
        <time>2019-08-23T19:48:51Z</time>
      </trkpt>
      <trkpt lat="47.10473" lon="6.49179">
        <ele>787</ele>
        <time>2019-08-23T19:48:57Z</time>
      </trkpt>
      <trkpt lat="47.10482" lon="6.492">
        <ele>786</ele>
        <time>2019-08-23T19:49:00Z</time>
      </trkpt>
      <trkpt lat="47.10495" lon="6.49235">
        <ele>785</ele>
        <time>2019-08-23T19:49:06Z</time>
      </trkpt>
      <trkpt lat="47.10522" lon="6.4931">
        <ele>783</ele>
        <time>2019-08-23T19:49:12Z</time>
      </trkpt>
      <trkpt lat="47.10528" lon="6.49329">
        <ele>783</ele>
        <time>2019-08-23T19:49:18Z</time>
      </trkpt>
      <trkpt lat="47.10547" lon="6.49384">
        <ele>785</ele>
        <time>2019-08-23T19:49:21Z</time>
      </trkpt>
      <trkpt lat="47.10565" lon="6.49434">
        <ele>785</ele>
        <time>2019-08-23T19:49:27Z</time>
      </trkpt>
      <trkpt lat="47.10582" lon="6.49465">
        <ele>787</ele>
        <time>2019-08-23T19:49:33Z</time>
      </trkpt>
      <trkpt lat="47.10596" lon="6.49485">
        <ele>777.1</ele>
        <time>2019-08-23T19:49:39Z</time>
      </trkpt>
      <trkpt lat="47.10584" lon="6.49521">
        <ele>776.6</ele>
        <time>2019-08-23T19:49:42Z</time>
      </trkpt>
      <trkpt lat="47.10592" lon="6.49595">
        <ele>785</ele>
        <time>2019-08-23T19:49:48Z</time>
      </trkpt>
      <trkpt lat="47.10598" lon="6.49649">
        <ele>783</ele>
        <time>2019-08-23T19:49:54Z</time>
      </trkpt>
      <trkpt lat="47.106" lon="6.49677">
        <ele>782</ele>
        <time>2019-08-23T19:49:57Z</time>
      </trkpt>
      <trkpt lat="47.10598" lon="6.49732">
        <ele>779</ele>
        <time>2019-08-23T19:50:03Z</time>
      </trkpt>
      <trkpt lat="47.10597" lon="6.49788">
        <ele>777</ele>
        <time>2019-08-23T19:50:09Z</time>
      </trkpt>
      <trkpt lat="47.106" lon="6.49816">
        <ele>776</ele>
        <time>2019-08-23T19:50:15Z</time>
      </trkpt>
      <trkpt lat="47.1062" lon="6.49872">
        <ele>775</ele>
        <time>2019-08-23T19:50:18Z</time>
      </trkpt>
      <trkpt lat="47.10647" lon="6.49939">
        <ele>769</ele>
        <time>2019-08-23T19:50:24Z</time>
      </trkpt>
      <trkpt lat="47.10677" lon="6.50018">
        <ele>766</ele>
        <time>2019-08-23T19:50:30Z</time>
      </trkpt>
      <trkpt lat="47.10689" lon="6.50062">
        <ele>763</ele>
        <time>2019-08-23T19:50:33Z</time>
      </trkpt>
      <trkpt lat="47.1071" lon="6.50151">
        <ele>760</ele>
        <time>2019-08-23T19:50:39Z</time>
      </trkpt>
      <trkpt lat="47.10721" lon="6.50233">
        <ele>757</ele>
        <time>2019-08-23T19:50:45Z</time>
      </trkpt>
      <trkpt lat="47.10726" lon="6.50273">
        <ele>757</ele>
        <time>2019-08-23T19:50:51Z</time>
      </trkpt>
      <trkpt lat="47.10734" lon="6.50349">
        <ele>756</ele>
        <time>2019-08-23T19:50:54Z</time>
      </trkpt>
      <trkpt lat="47.10736" lon="6.50415">
        <ele>756</ele>
        <time>2019-08-23T19:50:59Z</time>
      </trkpt>
      <trkpt lat="47.10725" lon="6.50471">
        <ele>751.8</ele>
        <time>2019-08-23T19:51:05Z</time>
      </trkpt>
      <trkpt lat="47.10717" lon="6.50496">
        <ele>751</ele>
        <time>2019-08-23T19:51:08Z</time>
      </trkpt>
      <trkpt lat="47.10707" lon="6.50535">
        <ele>751</ele>
        <time>2019-08-23T19:51:14Z</time>
      </trkpt>
      <trkpt lat="47.10694" lon="6.5058">
        <ele>751</ele>
        <time>2019-08-23T19:51:20Z</time>
      </trkpt>
      <trkpt lat="47.10687" lon="6.50624">
        <ele>750</ele>
        <time>2019-08-23T19:51:26Z</time>
      </trkpt>
      <trkpt lat="47.10687" lon="6.50645">
        <ele>751</ele>
        <time>2019-08-23T19:51:29Z</time>
      </trkpt>
      <trkpt lat="47.10694" lon="6.50682">
        <ele>750</ele>
        <time>2019-08-23T19:51:35Z</time>
      </trkpt>
      <trkpt lat="47.10697" lon="6.50705">
        <ele>751</ele>
        <time>2019-08-23T19:51:41Z</time>
      </trkpt>
      <trkpt lat="47.10699" lon="6.50715">
        <ele>752</ele>
        <time>2019-08-23T19:51:47Z</time>
      </trkpt>
      <trkpt lat="47.10703" lon="6.50737">
        <ele>752</ele>
        <time>2019-08-23T19:51:50Z</time>
      </trkpt>
      <trkpt lat="47.10712" lon="6.5077">
        <ele>751</ele>
        <time>2019-08-23T19:51:56Z</time>
      </trkpt>
      <trkpt lat="47.10731" lon="6.50807">
        <ele>751</ele>
        <time>2019-08-23T19:52:02Z</time>
      </trkpt>
      <trkpt lat="47.10739" lon="6.50819">
        <ele>751</ele>
        <time>2019-08-23T19:52:05Z</time>
      </trkpt>
      <trkpt lat="47.10764" lon="6.50852">
        <ele>752</ele>
        <time>2019-08-23T19:52:11Z</time>
      </trkpt>
      <trkpt lat="47.10786" lon="6.50886">
        <ele>753</ele>
        <time>2019-08-23T19:52:17Z</time>
      </trkpt>
      <trkpt lat="47.10797" lon="6.50906">
        <ele>754</ele>
        <time>2019-08-23T19:52:23Z</time>
      </trkpt>
      <trkpt lat="47.10818" lon="6.50953">
        <ele>753</ele>
        <time>2019-08-23T19:52:26Z</time>
      </trkpt>
      <trkpt lat="47.10838" lon="6.51006">
        <ele>753</ele>
        <time>2019-08-23T19:52:32Z</time>
      </trkpt>
      <trkpt lat="47.1086" lon="6.51057">
        <ele>752</ele>
        <time>2019-08-23T19:52:38Z</time>
      </trkpt>
      <trkpt lat="47.10875" lon="6.51085">
        <ele>753</ele>
        <time>2019-08-23T19:52:41Z</time>
      </trkpt>
      <trkpt lat="47.10897" lon="6.5114">
        <ele>749</ele>
        <time>2019-08-23T19:52:47Z</time>
      </trkpt>
      <trkpt lat="47.10908" lon="6.51203">
        <ele>742.6</ele>
        <time>2019-08-23T19:53:16Z</time>
      </trkpt>
      <trkpt lat="47.10908" lon="6.51237">
        <ele>741.8</ele>
        <time>2019-08-23T19:53:22Z</time>
      </trkpt>
      <trkpt lat="47.1091" lon="6.51299">
        <ele>740</ele>
        <time>2019-08-23T19:53:28Z</time>
      </trkpt>
      <trkpt lat="47.10921" lon="6.51362">
        <ele>739.2</ele>
        <time>2019-08-23T19:53:34Z</time>
      </trkpt>
      <trkpt lat="47.10927" lon="6.51408">
        <ele>738.6</ele>
        <time>2019-08-23T19:53:37Z</time>
      </trkpt>
      <trkpt lat="47.10928" lon="6.51454">
        <ele>738.2</ele>
        <time>2019-08-23T19:53:43Z</time>
      </trkpt>
      <trkpt lat="47.1093" lon="6.51516">
        <ele>738.1</ele>
        <time>2019-08-23T19:53:49Z</time>
      </trkpt>
      <trkpt lat="47.10933" lon="6.51568">
        <ele>739</ele>
        <time>2019-08-23T19:53:55Z</time>
      </trkpt>
      <trkpt lat="47.10941" lon="6.51607">
        <ele>740.9</ele>
        <time>2019-08-23T19:53:58Z</time>
      </trkpt>
      <trkpt lat="47.10946" lon="6.51627">
        <ele>741.4</ele>
        <time>2019-08-23T19:54:04Z</time>
      </trkpt>
      <trkpt lat="47.10956" lon="6.51657">
        <ele>752</ele>
        <time>2019-08-23T19:54:10Z</time>
      </trkpt>
      <trkpt lat="47.10968" lon="6.51693">
        <ele>753</ele>
        <time>2019-08-23T19:54:13Z</time>
      </trkpt>
      <trkpt lat="47.10977" lon="6.5171">
        <ele>754</ele>
        <time>2019-08-23T19:54:19Z</time>
      </trkpt>
      <trkpt lat="47.11003" lon="6.51735">
        <ele>756</ele>
        <time>2019-08-23T19:54:25Z</time>
      </trkpt>
      <trkpt lat="47.11029" lon="6.51755">
        <ele>755</ele>
        <time>2019-08-23T19:54:31Z</time>
      </trkpt>
      <trkpt lat="47.1105" lon="6.51774">
        <ele>756</ele>
        <time>2019-08-23T19:54:34Z</time>
      </trkpt>
      <trkpt lat="47.11061" lon="6.51783">
        <ele>758</ele>
        <time>2019-08-23T19:54:40Z</time>
      </trkpt>
      <trkpt lat="47.11081" lon="6.51803">
        <ele>758</ele>
        <time>2019-08-23T19:54:46Z</time>
      </trkpt>
      <trkpt lat="47.11098" lon="6.5182">
        <ele>759</ele>
        <time>2019-08-23T19:54:49Z</time>
      </trkpt>
      <trkpt lat="47.11107" lon="6.5183">
        <ele>760</ele>
        <time>2019-08-23T19:55:51Z</time>
      </trkpt>
      <trkpt lat="47.11125" lon="6.51853">
        <ele>759</ele>
        <time>2019-08-23T19:56:03Z</time>
      </trkpt>
      <trkpt lat="47.11142" lon="6.5188">
        <ele>760</ele>
        <time>2019-08-23T19:56:06Z</time>
      </trkpt>
      <trkpt lat="47.11158" lon="6.51908">
        <ele>761</ele>
        <time>2019-08-23T19:56:12Z</time>
      </trkpt>
      <trkpt lat="47.11165" lon="6.51922">
        <ele>761</ele>
        <time>2019-08-23T19:56:18Z</time>
      </trkpt>
      <trkpt lat="47.11168" lon="6.51956">
        <ele>763</ele>
        <time>2019-08-23T19:56:21Z</time>
      </trkpt>
      <trkpt lat="47.11149" lon="6.51981">
        <ele>764</ele>
        <time>2019-08-23T19:56:39Z</time>
      </trkpt>
      <trkpt lat="47.11139" lon="6.51992">
        <ele>764</ele>
        <time>2019-08-23T19:56:42Z</time>
      </trkpt>
      <trkpt lat="47.11118" lon="6.52016">
        <ele>764</ele>
        <time>2019-08-23T19:56:48Z</time>
      </trkpt>
      <trkpt lat="47.11096" lon="6.52039">
        <ele>765</ele>
        <time>2019-08-23T19:56:57Z</time>
      </trkpt>
      <trkpt lat="47.11069" lon="6.52061">
        <ele>765</ele>
        <time>2019-08-23T19:57:03Z</time>
      </trkpt>
      <trkpt lat="47.11041" lon="6.52083">
        <ele>753.5</ele>
        <time>2019-08-23T19:57:09Z</time>
      </trkpt>
      <trkpt lat="47.11029" lon="6.52114">
        <ele>762</ele>
        <time>2019-08-23T19:57:18Z</time>
      </trkpt>
      <trkpt lat="47.11025" lon="6.52183">
        <ele>751.4</ele>
        <time>2019-08-23T19:57:24Z</time>
      </trkpt>
      <trkpt lat="47.11013" lon="6.52226">
        <ele>759</ele>
        <time>2019-08-23T19:57:45Z</time>
      </trkpt>
      <trkpt lat="47.11005" lon="6.52249">
        <ele>759</ele>
        <time>2019-08-23T19:57:50Z</time>
      </trkpt>
      <trkpt lat="47.10991" lon="6.52292">
        <ele>759</ele>
        <time>2019-08-23T19:57:53Z</time>
      </trkpt>
      <trkpt lat="47.10975" lon="6.52336">
        <ele>760.4</ele>
        <time>2019-08-23T19:57:59Z</time>
      </trkpt>
      <trkpt lat="47.10967" lon="6.52356">
        <ele>761</ele>
        <time>2019-08-23T19:58:05Z</time>
      </trkpt>
      <trkpt lat="47.1095" lon="6.52391">
        <ele>761</ele>
        <time>2019-08-23T19:58:11Z</time>
      </trkpt>
      <trkpt lat="47.10927" lon="6.52426">
        <ele>760</ele>
        <time>2019-08-23T19:58:14Z</time>
      </trkpt>
      <trkpt lat="47.10887" lon="6.52433">
        <ele>759</ele>
        <time>2019-08-23T19:58:20Z</time>
      </trkpt>
      <trkpt lat="47.10865" lon="6.52418">
        <ele>756</ele>
        <time>2019-08-23T19:58:26Z</time>
      </trkpt>
      <trkpt lat="47.10819" lon="6.52377">
        <ele>752</ele>
        <time>2019-08-23T19:58:35Z</time>
      </trkpt>
      <trkpt lat="47.10776" lon="6.5235">
        <ele>752</ele>
        <time>2019-08-23T19:58:41Z</time>
      </trkpt>
      <trkpt lat="47.10758" lon="6.5234">
        <ele>752</ele>
        <time>2019-08-23T19:58:47Z</time>
      </trkpt>
      <trkpt lat="47.1073" lon="6.52325">
        <ele>752</ele>
        <time>2019-08-23T19:58:50Z</time>
      </trkpt>
      <trkpt lat="47.10699" lon="6.5231">
        <ele>752</ele>
        <time>2019-08-23T19:58:56Z</time>
      </trkpt>
      <trkpt lat="47.10671" lon="6.52302">
        <ele>752</ele>
        <time>2019-08-23T19:59:02Z</time>
      </trkpt>
      <trkpt lat="47.10657" lon="6.52304">
        <ele>753</ele>
        <time>2019-08-23T19:59:05Z</time>
      </trkpt>
      <trkpt lat="47.10641" lon="6.5234">
        <ele>753</ele>
        <time>2019-08-23T19:59:17Z</time>
      </trkpt>
      <trkpt lat="47.10643" lon="6.52386">
        <ele>753</ele>
        <time>2019-08-23T19:59:26Z</time>
      </trkpt>
      <trkpt lat="47.10646" lon="6.5241">
        <ele>753</ele>
        <time>2019-08-23T19:59:32Z</time>
      </trkpt>
      <trkpt lat="47.10653" lon="6.52455">
        <ele>753</ele>
        <time>2019-08-23T19:59:41Z</time>
      </trkpt>
      <trkpt lat="47.10657" lon="6.52499">
        <ele>754</ele>
        <time>2019-08-23T19:59:53Z</time>
      </trkpt>
      <trkpt lat="47.10663" lon="6.52536">
        <ele>755</ele>
        <time>2019-08-23T20:00:02Z</time>
      </trkpt>
      <trkpt lat="47.1067" lon="6.52552">
        <ele>755</ele>
        <time>2019-08-23T20:00:07Z</time>
      </trkpt>
      <trkpt lat="47.10677" lon="6.52571">
        <ele>755</ele>
        <time>2019-08-23T20:00:19Z</time>
      </trkpt>
      <trkpt lat="47.10687" lon="6.52598">
        <ele>755</ele>
        <time>2019-08-23T20:00:22Z</time>
      </trkpt>
      <trkpt lat="47.10707" lon="6.52631">
        <ele>769.8</ele>
        <time>2019-08-23T20:00:28Z</time>
      </trkpt>
      <trkpt lat="47.1073" lon="6.5268">
        <ele>775.2</ele>
        <time>2019-08-23T20:00:43Z</time>
      </trkpt>
      <trkpt lat="47.1076" lon="6.52742">
        <ele>769.8</ele>
        <time>2019-08-23T20:00:49Z</time>
      </trkpt>
      <trkpt lat="47.10776" lon="6.52776">
        <ele>758</ele>
        <time>2019-08-23T20:00:55Z</time>
      </trkpt>
      <trkpt lat="47.108" lon="6.52828">
        <ele>755</ele>
        <time>2019-08-23T20:00:58Z</time>
      </trkpt>
      <trkpt lat="47.10832" lon="6.52879">
        <ele>754</ele>
        <time>2019-08-23T20:01:04Z</time>
      </trkpt>
      <trkpt lat="47.10848" lon="6.52908">
        <ele>752</ele>
        <time>2019-08-23T20:01:10Z</time>
      </trkpt>
      <trkpt lat="47.10873" lon="6.52961">
        <ele>752</ele>
        <time>2019-08-23T20:01:13Z</time>
      </trkpt>
      <trkpt lat="47.10892" lon="6.53">
        <ele>753</ele>
        <time>2019-08-23T20:01:19Z</time>
      </trkpt>
      <trkpt lat="47.109" lon="6.53016">
        <ele>753</ele>
        <time>2019-08-23T20:01:25Z</time>
      </trkpt>
      <trkpt lat="47.1092" lon="6.53052">
        <ele>754</ele>
        <time>2019-08-23T20:01:32Z</time>
      </trkpt>
      <trkpt lat="47.10937" lon="6.53079">
        <ele>754</ele>
        <time>2019-08-23T20:01:35Z</time>
      </trkpt>
      <trkpt lat="47.10956" lon="6.53111">
        <ele>755</ele>
        <time>2019-08-23T20:01:47Z</time>
      </trkpt>
      <trkpt lat="47.10963" lon="6.53119">
        <ele>755</ele>
        <time>2019-08-23T20:01:56Z</time>
      </trkpt>
      <trkpt lat="47.10983" lon="6.5315">
        <ele>757</ele>
        <time>2019-08-23T20:02:02Z</time>
      </trkpt>
      <trkpt lat="47.10999" lon="6.53172">
        <ele>758</ele>
        <time>2019-08-23T20:02:11Z</time>
      </trkpt>
      <trkpt lat="47.11008" lon="6.53187">
        <ele>758</ele>
        <time>2019-08-23T20:02:22Z</time>
      </trkpt>
      <trkpt lat="47.11026" lon="6.53217">
        <ele>757</ele>
        <time>2019-08-23T20:02:31Z</time>
      </trkpt>
      <trkpt lat="47.11048" lon="6.53236">
        <ele>757</ele>
        <time>2019-08-23T20:02:37Z</time>
      </trkpt>
      <trkpt lat="47.1108" lon="6.53262">
        <ele>755</ele>
        <time>2019-08-23T20:02:46Z</time>
      </trkpt>
      <trkpt lat="47.11095" lon="6.53282">
        <ele>754</ele>
        <time>2019-08-23T20:02:52Z</time>
      </trkpt>
      <trkpt lat="47.11128" lon="6.53322">
        <ele>753</ele>
        <time>2019-08-23T20:03:04Z</time>
      </trkpt>
      <trkpt lat="47.11161" lon="6.53369">
        <ele>762</ele>
        <time>2019-08-23T20:03:13Z</time>
      </trkpt>
      <trkpt lat="47.11196" lon="6.53415">
        <ele>747.3</ele>
        <time>2019-08-23T20:03:22Z</time>
      </trkpt>
      <trkpt lat="47.1121" lon="6.53435">
        <ele>749.7</ele>
        <time>2019-08-23T20:03:40Z</time>
      </trkpt>
      <trkpt lat="47.11229" lon="6.53472">
        <ele>748.9</ele>
        <time>2019-08-23T20:03:49Z</time>
      </trkpt>
      <trkpt lat="47.11248" lon="6.5351">
        <ele>748.9</ele>
        <time>2019-08-23T20:03:55Z</time>
      </trkpt>
      <trkpt lat="47.11264" lon="6.53555">
        <ele>743.9</ele>
        <time>2019-08-23T20:03:58Z</time>
      </trkpt>
      <trkpt lat="47.11289" lon="6.53604">
        <ele>749.3</ele>
        <time>2019-08-23T20:04:04Z</time>
      </trkpt>
      <trkpt lat="47.11309" lon="6.53637">
        <ele>749.3</ele>
        <time>2019-08-23T20:04:10Z</time>
      </trkpt>
      <trkpt lat="47.11345" lon="6.53701">
        <ele>751.4</ele>
        <time>2019-08-23T20:04:16Z</time>
      </trkpt>
      <trkpt lat="47.11359" lon="6.53721">
        <ele>747</ele>
        <time>2019-08-23T20:04:19Z</time>
      </trkpt>
      <trkpt lat="47.11373" lon="6.53747">
        <ele>748</ele>
        <time>2019-08-23T20:04:25Z</time>
      </trkpt>
      <trkpt lat="47.11387" lon="6.53758">
        <ele>749</ele>
        <time>2019-08-23T20:05:13Z</time>
      </trkpt>
      <trkpt lat="47.1141" lon="6.53739">
        <ele>747</ele>
        <time>2019-08-23T20:05:16Z</time>
      </trkpt>
      <trkpt lat="47.11426" lon="6.53724">
        <ele>745</ele>
        <time>2019-08-23T20:05:22Z</time>
      </trkpt>
      <trkpt lat="47.11453" lon="6.53696">
        <ele>744</ele>
        <time>2019-08-23T20:05:28Z</time>
      </trkpt>
      <trkpt lat="47.11473" lon="6.53672">
        <ele>736.5</ele>
        <time>2019-08-23T20:05:31Z</time>
      </trkpt>
      <trkpt lat="47.1148" lon="6.5368">
        <ele>736.4</ele>
        <time>2019-08-23T20:05:37Z</time>
      </trkpt>
      <trkpt lat="47.11485" lon="6.53696">
        <ele>739</ele>
        <time>2019-08-23T20:05:43Z</time>
      </trkpt>
      <trkpt lat="47.11489" lon="6.53714">
        <ele>740</ele>
        <time>2019-08-23T20:05:49Z</time>
      </trkpt>
      <trkpt lat="47.11494" lon="6.53729">
        <ele>741</ele>
        <time>2019-08-23T20:05:52Z</time>
      </trkpt>
      <trkpt lat="47.11504" lon="6.53753">
        <ele>743</ele>
        <time>2019-08-23T20:05:58Z</time>
      </trkpt>
      <trkpt lat="47.11508" lon="6.53771">
        <ele>743</ele>
        <time>2019-08-23T20:06:04Z</time>
      </trkpt>
      <trkpt lat="47.11512" lon="6.53787">
        <ele>744</ele>
        <time>2019-08-23T20:06:07Z</time>
      </trkpt>
      <trkpt lat="47.11517" lon="6.5381">
        <ele>746</ele>
        <time>2019-08-23T20:06:13Z</time>
      </trkpt>
      <trkpt lat="47.1152" lon="6.53823">
        <ele>747</ele>
        <time>2019-08-23T20:06:19Z</time>
      </trkpt>
      <trkpt lat="47.11525" lon="6.5385">
        <ele>749</ele>
        <time>2019-08-23T20:06:25Z</time>
      </trkpt>
      <trkpt lat="47.11525" lon="6.5385">
        <ele>750</ele>
        <time>2019-08-23T20:06:28Z</time>
      </trkpt>
      <trkpt lat="47.11526" lon="6.53853">
        <ele>749</ele>
        <time>2019-08-23T20:06:34Z</time>
      </trkpt>
      <trkpt lat="47.11526" lon="6.53853">
        <ele>749</ele>
        <time>2019-08-23T20:06:40Z</time>
      </trkpt>
      <trkpt lat="47.11526" lon="6.53853">
        <ele>749</ele>
        <time>2019-08-23T20:06:46Z</time>
      </trkpt>
      <trkpt lat="47.11526" lon="6.53853">
        <ele>749</ele>
        <time>2019-08-23T20:06:49Z</time>
      </trkpt>
      <trkpt lat="47.11526" lon="6.53853">
        <ele>750</ele>
        <time>2019-08-23T20:06:55Z</time>
      </trkpt>
      <trkpt lat="47.11526" lon="6.53853">
        <ele>750</ele>
        <time>2019-08-23T20:07:00Z</time>
      </trkpt>
      <trkpt lat="47.11526" lon="6.53853">
        <ele>750</ele>
        <time>2019-08-23T20:07:03Z</time>
      </trkpt>
      <trkpt lat="47.11529" lon="6.53857">
        <ele>750</ele>
        <time>2019-08-23T20:07:09Z</time>
      </trkpt>
      <trkpt lat="47.11529" lon="6.53857">
        <ele>750</ele>
        <time>2019-08-23T20:07:15Z</time>
      </trkpt>
      <trkpt lat="47.11529" lon="6.5386">
        <ele>749</ele>
        <time>2019-08-23T20:07:21Z</time>
      </trkpt>
      <trkpt lat="47.11529" lon="6.5386">
        <ele>750</ele>
        <time>2019-08-23T20:07:24Z</time>
      </trkpt>
      <trkpt lat="47.11529" lon="6.5386">
        <ele>749</ele>
        <time>2019-08-23T20:07:30Z</time>
      </trkpt>
      <trkpt lat="47.11529" lon="6.5386">
        <ele>749</ele>
        <time>2019-08-23T20:07:36Z</time>
      </trkpt>
      <trkpt lat="47.11529" lon="6.5386">
        <ele>749</ele>
        <time>2019-08-23T20:07:39Z</time>
      </trkpt>
      <trkpt lat="47.11539" lon="6.53883">
        <ele>751</ele>
        <time>2019-08-23T20:07:45Z</time>
      </trkpt>
      <trkpt lat="47.11545" lon="6.539">
        <ele>753</ele>
        <time>2019-08-23T20:07:51Z</time>
      </trkpt>
      <trkpt lat="47.11549" lon="6.53913">
        <ele>754</ele>
        <time>2019-08-23T20:07:57Z</time>
      </trkpt>
      <trkpt lat="47.11553" lon="6.53934">
        <ele>756</ele>
        <time>2019-08-23T20:08:00Z</time>
      </trkpt>
      <trkpt lat="47.11559" lon="6.53962">
        <ele>758</ele>
        <time>2019-08-23T20:08:06Z</time>
      </trkpt>
      <trkpt lat="47.11566" lon="6.53982">
        <ele>761</ele>
        <time>2019-08-23T20:08:12Z</time>
      </trkpt>
      <trkpt lat="47.11572" lon="6.53996">
        <ele>762</ele>
        <time>2019-08-23T20:08:15Z</time>
      </trkpt>
      <trkpt lat="47.11582" lon="6.54018">
        <ele>762</ele>
        <time>2019-08-23T20:08:21Z</time>
      </trkpt>
      <trkpt lat="47.11588" lon="6.54032">
        <ele>764</ele>
        <time>2019-08-23T20:08:27Z</time>
      </trkpt>
      <trkpt lat="47.11593" lon="6.54042">
        <ele>765</ele>
        <time>2019-08-23T20:08:33Z</time>
      </trkpt>
      <trkpt lat="47.116" lon="6.54058">
        <ele>768</ele>
        <time>2019-08-23T20:08:36Z</time>
      </trkpt>
      <trkpt lat="47.116" lon="6.54058">
        <ele>767</ele>
        <time>2019-08-23T20:08:42Z</time>
      </trkpt>
      <trkpt lat="47.11602" lon="6.54059">
        <ele>767</ele>
        <time>2019-08-23T20:08:48Z</time>
      </trkpt>
      <trkpt lat="47.11602" lon="6.54059">
        <ele>768</ele>
        <time>2019-08-23T20:08:54Z</time>
      </trkpt>
      <trkpt lat="47.11602" lon="6.54059">
        <ele>767</ele>
        <time>2019-08-23T20:08:57Z</time>
      </trkpt>
      <trkpt lat="47.11602" lon="6.54059">
        <ele>767</ele>
        <time>2019-08-23T20:09:03Z</time>
      </trkpt>
      <trkpt lat="47.11602" lon="6.54062">
        <ele>768</ele>
        <time>2019-08-23T20:09:09Z</time>
      </trkpt>
      <trkpt lat="47.11602" lon="6.54062">
        <ele>768</ele>
        <time>2019-08-23T20:09:12Z</time>
      </trkpt>
      <trkpt lat="47.11602" lon="6.54062">
        <ele>768</ele>
        <time>2019-08-23T20:09:17Z</time>
      </trkpt>
      <trkpt lat="47.11602" lon="6.54065">
        <ele>768</ele>
        <time>2019-08-23T20:09:23Z</time>
      </trkpt>
      <trkpt lat="47.11602" lon="6.54065">
        <ele>768</ele>
        <time>2019-08-23T20:09:29Z</time>
      </trkpt>
      <trkpt lat="47.11609" lon="6.5408">
        <ele>770</ele>
        <time>2019-08-23T20:09:32Z</time>
      </trkpt>
      <trkpt lat="47.11616" lon="6.54104">
        <ele>773</ele>
        <time>2019-08-23T20:09:38Z</time>
      </trkpt>
      <trkpt lat="47.11617" lon="6.54111">
        <ele>775</ele>
        <time>2019-08-23T20:09:44Z</time>
      </trkpt>
      <trkpt lat="47.11622" lon="6.5413">
        <ele>778</ele>
        <time>2019-08-23T20:09:47Z</time>
      </trkpt>
      <trkpt lat="47.1163" lon="6.54152">
        <ele>779</ele>
        <time>2019-08-23T20:09:53Z</time>
      </trkpt>
      <trkpt lat="47.11639" lon="6.54179">
        <ele>782</ele>
        <time>2019-08-23T20:09:59Z</time>
      </trkpt>
      <trkpt lat="47.11642" lon="6.54191">
        <ele>783</ele>
        <time>2019-08-23T20:10:06Z</time>
      </trkpt>
      <trkpt lat="47.11643" lon="6.54205">
        <ele>785</ele>
        <time>2019-08-23T20:10:09Z</time>
      </trkpt>
      <trkpt lat="47.11645" lon="6.54216">
        <ele>787</ele>
        <time>2019-08-23T20:10:15Z</time>
      </trkpt>
      <trkpt lat="47.1164" lon="6.54235">
        <ele>788</ele>
        <time>2019-08-23T20:10:21Z</time>
      </trkpt>
      <trkpt lat="47.11632" lon="6.54253">
        <ele>791</ele>
        <time>2019-08-23T20:10:24Z</time>
      </trkpt>
      <trkpt lat="47.11623" lon="6.54269">
        <ele>793</ele>
        <time>2019-08-23T20:10:30Z</time>
      </trkpt>
      <trkpt lat="47.11605" lon="6.54275">
        <ele>795</ele>
        <time>2019-08-23T20:10:36Z</time>
      </trkpt>
      <trkpt lat="47.11595" lon="6.5427">
        <ele>796</ele>
        <time>2019-08-23T20:10:42Z</time>
      </trkpt>
      <trkpt lat="47.11595" lon="6.5427">
        <ele>796</ele>
        <time>2019-08-23T20:10:45Z</time>
      </trkpt>
      <trkpt lat="47.11595" lon="6.5427">
        <ele>796</ele>
        <time>2019-08-23T20:10:51Z</time>
      </trkpt>
      <trkpt lat="47.11593" lon="6.54268">
        <ele>796</ele>
        <time>2019-08-23T20:10:57Z</time>
      </trkpt>
      <trkpt lat="47.11593" lon="6.54268">
        <ele>796</ele>
        <time>2019-08-23T20:11:03Z</time>
      </trkpt>
      <trkpt lat="47.11593" lon="6.54268">
        <ele>796</ele>
        <time>2019-08-23T20:11:06Z</time>
      </trkpt>
      <trkpt lat="47.11593" lon="6.54268">
        <ele>796</ele>
        <time>2019-08-23T20:11:12Z</time>
      </trkpt>
      <trkpt lat="47.11593" lon="6.54269">
        <ele>789</ele>
        <time>2019-08-23T20:11:18Z</time>
      </trkpt>
      <trkpt lat="47.11593" lon="6.54268">
        <ele>796</ele>
        <time>2019-08-23T20:11:21Z</time>
      </trkpt>
      <trkpt lat="47.11581" lon="6.54266">
        <ele>797.9</ele>
        <time>2019-08-23T20:11:27Z</time>
      </trkpt>
      <trkpt lat="47.11569" lon="6.54243">
        <ele>798.7</ele>
        <time>2019-08-23T20:11:33Z</time>
      </trkpt>
      <trkpt lat="47.11557" lon="6.54214">
        <ele>801.2</ele>
        <time>2019-08-23T20:11:38Z</time>
      </trkpt>
      <trkpt lat="47.11545" lon="6.54212">
        <ele>802.5</ele>
        <time>2019-08-23T20:11:41Z</time>
      </trkpt>
      <trkpt lat="47.11527" lon="6.54224">
        <ele>798</ele>
        <time>2019-08-23T20:11:47Z</time>
      </trkpt>
      <trkpt lat="47.11514" lon="6.54243">
        <ele>799</ele>
        <time>2019-08-23T20:11:53Z</time>
      </trkpt>
      <trkpt lat="47.11495" lon="6.5427">
        <ele>799</ele>
        <time>2019-08-23T20:11:56Z</time>
      </trkpt>
      <trkpt lat="47.11492" lon="6.54283">
        <ele>799</ele>
        <time>2019-08-23T20:12:02Z</time>
      </trkpt>
      <trkpt lat="47.11486" lon="6.54303">
        <ele>799</ele>
        <time>2019-08-23T20:12:08Z</time>
      </trkpt>
      <trkpt lat="47.11483" lon="6.54341">
        <ele>797</ele>
        <time>2019-08-23T20:12:14Z</time>
      </trkpt>
      <trkpt lat="47.11495" lon="6.54377">
        <ele>797</ele>
        <time>2019-08-23T20:12:17Z</time>
      </trkpt>
      <trkpt lat="47.11502" lon="6.54392">
        <ele>797</ele>
        <time>2019-08-23T20:12:23Z</time>
      </trkpt>
      <trkpt lat="47.11513" lon="6.54429">
        <ele>797</ele>
        <time>2019-08-23T20:12:29Z</time>
      </trkpt>
      <trkpt lat="47.11525" lon="6.54459">
        <ele>797</ele>
        <time>2019-08-23T20:12:32Z</time>
      </trkpt>
      <trkpt lat="47.11534" lon="6.54475">
        <ele>797</ele>
        <time>2019-08-23T20:12:38Z</time>
      </trkpt>
      <trkpt lat="47.11547" lon="6.54495">
        <ele>797</ele>
        <time>2019-08-23T20:12:44Z</time>
      </trkpt>
      <trkpt lat="47.11558" lon="6.5452">
        <ele>798</ele>
        <time>2019-08-23T20:12:50Z</time>
      </trkpt>
      <trkpt lat="47.11565" lon="6.54546">
        <ele>799</ele>
        <time>2019-08-23T20:12:53Z</time>
      </trkpt>
      <trkpt lat="47.11569" lon="6.54559">
        <ele>800</ele>
        <time>2019-08-23T20:12:59Z</time>
      </trkpt>
      <trkpt lat="47.11581" lon="6.5458">
        <ele>800</ele>
        <time>2019-08-23T20:13:05Z</time>
      </trkpt>
      <trkpt lat="47.11593" lon="6.54599">
        <ele>800</ele>
        <time>2019-08-23T20:13:11Z</time>
      </trkpt>
      <trkpt lat="47.11598" lon="6.54612">
        <ele>800</ele>
        <time>2019-08-23T20:13:14Z</time>
      </trkpt>
      <trkpt lat="47.11607" lon="6.54641">
        <ele>800</ele>
        <time>2019-08-23T20:13:20Z</time>
      </trkpt>
      <trkpt lat="47.11614" lon="6.54653">
        <ele>801</ele>
        <time>2019-08-23T20:13:26Z</time>
      </trkpt>
      <trkpt lat="47.11629" lon="6.54669">
        <ele>802</ele>
        <time>2019-08-23T20:13:29Z</time>
      </trkpt>
      <trkpt lat="47.11637" lon="6.54681">
        <ele>803</ele>
        <time>2019-08-23T20:13:35Z</time>
      </trkpt>
      <trkpt lat="47.11654" lon="6.54707">
        <ele>803</ele>
        <time>2019-08-23T20:13:41Z</time>
      </trkpt>
      <trkpt lat="47.11678" lon="6.54738">
        <ele>803</ele>
        <time>2019-08-23T20:13:47Z</time>
      </trkpt>
      <trkpt lat="47.11684" lon="6.54748">
        <ele>803</ele>
        <time>2019-08-23T20:13:50Z</time>
      </trkpt>
      <trkpt lat="47.11692" lon="6.54765">
        <ele>803</ele>
        <time>2019-08-23T20:13:55Z</time>
      </trkpt>
      <trkpt lat="47.11687" lon="6.54771">
        <ele>805</ele>
        <time>2019-08-23T20:14:01Z</time>
      </trkpt>
      <trkpt lat="47.11676" lon="6.54773">
        <ele>806</ele>
        <time>2019-08-23T20:14:04Z</time>
      </trkpt>
      <trkpt lat="47.11667" lon="6.54781">
        <ele>807</ele>
        <time>2019-08-23T20:14:10Z</time>
      </trkpt>
      <trkpt lat="47.1166" lon="6.54798">
        <ele>808</ele>
        <time>2019-08-23T20:14:16Z</time>
      </trkpt>
      <trkpt lat="47.1166" lon="6.5482">
        <ele>808</ele>
        <time>2019-08-23T20:14:22Z</time>
      </trkpt>
      <trkpt lat="47.11658" lon="6.54846">
        <ele>807</ele>
        <time>2019-08-23T20:14:25Z</time>
      </trkpt>
      <trkpt lat="47.11655" lon="6.5486">
        <ele>807</ele>
        <time>2019-08-23T20:14:31Z</time>
      </trkpt>
      <trkpt lat="47.11644" lon="6.54874">
        <ele>809</ele>
        <time>2019-08-23T20:14:37Z</time>
      </trkpt>
      <trkpt lat="47.11635" lon="6.54874">
        <ele>810</ele>
        <time>2019-08-23T20:14:40Z</time>
      </trkpt>
      <trkpt lat="47.11632" lon="6.54875">
        <ele>810</ele>
        <time>2019-08-23T20:14:46Z</time>
      </trkpt>
      <trkpt lat="47.11617" lon="6.54882">
        <ele>813</ele>
        <time>2019-08-23T20:14:58Z</time>
      </trkpt>
      <trkpt lat="47.11602" lon="6.54887">
        <ele>814</ele>
        <time>2019-08-23T20:15:01Z</time>
      </trkpt>
      <trkpt lat="47.11592" lon="6.54892">
        <ele>815</ele>
        <time>2019-08-23T20:15:16Z</time>
      </trkpt>
      <trkpt lat="47.11587" lon="6.54897">
        <ele>815</ele>
        <time>2019-08-23T20:15:31Z</time>
      </trkpt>
      <trkpt lat="47.11577" lon="6.54901">
        <ele>817</ele>
        <time>2019-08-23T20:16:01Z</time>
      </trkpt>
      <trkpt lat="47.11568" lon="6.54903">
        <ele>819</ele>
        <time>2019-08-23T20:16:27Z</time>
      </trkpt>
      <trkpt lat="47.11564" lon="6.54907">
        <ele>819</ele>
        <time>2019-08-23T20:16:33Z</time>
      </trkpt>
      <trkpt lat="47.1155" lon="6.54899">
        <ele>820</ele>
        <time>2019-08-23T20:16:42Z</time>
      </trkpt>
      <trkpt lat="47.11541" lon="6.54888">
        <ele>821</ele>
        <time>2019-08-23T20:23:01Z</time>
      </trkpt>
      <trkpt lat="47.11531" lon="6.54874">
        <ele>823</ele>
        <time>2019-08-23T20:23:27Z</time>
      </trkpt>
      <trkpt lat="47.11526" lon="6.54866">
        <ele>823</ele>
        <time>2019-08-23T20:27:02Z</time>
      </trkpt>
      <trkpt lat="47.11516" lon="6.54849">
        <ele>824</ele>
        <time>2019-08-23T20:28:19Z</time>
      </trkpt>
      <trkpt lat="47.11509" lon="6.54834">
        <ele>825</ele>
        <time>2019-08-23T20:28:46Z</time>
      </trkpt>
      <trkpt lat="47.11507" lon="6.54828">
        <ele>825</ele>
        <time>2019-08-23T20:29:22Z</time>
      </trkpt>
      <trkpt lat="47.11498" lon="6.5481">
        <ele>826</ele>
        <time>2019-08-23T20:30:36Z</time>
      </trkpt>
      <trkpt lat="47.11482" lon="6.54786">
        <ele>827</ele>
        <time>2019-08-23T20:30:42Z</time>
      </trkpt>
      <trkpt lat="47.11469" lon="6.54758">
        <ele>827</ele>
        <time>2019-08-23T20:30:45Z</time>
      </trkpt>
      <trkpt lat="47.11463" lon="6.54746">
        <ele>827</ele>
        <time>2019-08-23T20:30:57Z</time>
      </trkpt>
      <trkpt lat="47.11452" lon="6.54717">
        <ele>828</ele>
        <time>2019-08-23T20:31:03Z</time>
      </trkpt>
      <trkpt lat="47.11441" lon="6.54695">
        <ele>829</ele>
        <time>2019-08-23T20:31:06Z</time>
      </trkpt>
      <trkpt lat="47.1143" lon="6.5467">
        <ele>830</ele>
        <time>2019-08-23T20:31:12Z</time>
      </trkpt>
      <trkpt lat="47.11426" lon="6.54664">
        <ele>830</ele>
        <time>2019-08-23T20:31:18Z</time>
      </trkpt>
      <trkpt lat="47.11412" lon="6.54642">
        <ele>831</ele>
        <time>2019-08-23T20:31:21Z</time>
      </trkpt>
      <trkpt lat="47.11391" lon="6.54618">
        <ele>832</ele>
        <time>2019-08-23T20:31:27Z</time>
      </trkpt>
      <trkpt lat="47.11381" lon="6.54608">
        <ele>832</ele>
        <time>2019-08-23T20:31:33Z</time>
      </trkpt>
      <trkpt lat="47.11369" lon="6.54595">
        <ele>832</ele>
        <time>2019-08-23T20:31:45Z</time>
      </trkpt>
      <trkpt lat="47.11348" lon="6.54568">
        <ele>833</ele>
        <time>2019-08-23T20:31:48Z</time>
      </trkpt>
      <trkpt lat="47.1133" lon="6.54559">
        <ele>833</ele>
        <time>2019-08-23T20:32:00Z</time>
      </trkpt>
      <trkpt lat="47.11326" lon="6.54568">
        <ele>833</ele>
        <time>2019-08-23T20:32:03Z</time>
      </trkpt>
      <trkpt lat="47.11329" lon="6.54591">
        <ele>835</ele>
        <time>2019-08-23T20:32:11Z</time>
      </trkpt>
      <trkpt lat="47.11335" lon="6.54613">
        <ele>835</ele>
        <time>2019-08-23T20:32:23Z</time>
      </trkpt>
      <trkpt lat="47.11337" lon="6.54624">
        <ele>837</ele>
        <time>2019-08-23T20:32:29Z</time>
      </trkpt>
      <trkpt lat="47.11338" lon="6.54642">
        <ele>837</ele>
        <time>2019-08-23T20:32:35Z</time>
      </trkpt>
      <trkpt lat="47.11343" lon="6.54663">
        <ele>839</ele>
        <time>2019-08-23T20:32:47Z</time>
      </trkpt>
      <trkpt lat="47.11347" lon="6.54689">
        <ele>840</ele>
        <time>2019-08-23T20:32:53Z</time>
      </trkpt>
      <trkpt lat="47.11346" lon="6.54697">
        <ele>840</ele>
        <time>2019-08-23T20:32:56Z</time>
      </trkpt>
      <trkpt lat="47.11345" lon="6.54716">
        <ele>841</ele>
        <time>2019-08-23T20:33:02Z</time>
      </trkpt>
      <trkpt lat="47.11345" lon="6.54738">
        <ele>842</ele>
        <time>2019-08-23T20:33:08Z</time>
      </trkpt>
      <trkpt lat="47.11346" lon="6.5475">
        <ele>842</ele>
        <time>2019-08-23T20:33:14Z</time>
      </trkpt>
      <trkpt lat="47.11347" lon="6.54762">
        <ele>843</ele>
        <time>2019-08-23T20:33:17Z</time>
      </trkpt>
      <trkpt lat="47.11346" lon="6.5478">
        <ele>844</ele>
        <time>2019-08-23T20:33:23Z</time>
      </trkpt>
      <trkpt lat="47.11348" lon="6.54802">
        <ele>845</ele>
        <time>2019-08-23T20:33:29Z</time>
      </trkpt>
      <trkpt lat="47.11348" lon="6.5481">
        <ele>845</ele>
        <time>2019-08-23T20:33:35Z</time>
      </trkpt>
      <trkpt lat="47.11352" lon="6.54826">
        <ele>847</ele>
        <time>2019-08-23T20:33:38Z</time>
      </trkpt>
      <trkpt lat="47.11356" lon="6.54851">
        <ele>847</ele>
        <time>2019-08-23T20:33:44Z</time>
      </trkpt>
      <trkpt lat="47.11358" lon="6.54877">
        <ele>849</ele>
        <time>2019-08-23T20:33:50Z</time>
      </trkpt>
      <trkpt lat="47.11359" lon="6.54888">
        <ele>849</ele>
        <time>2019-08-23T20:33:53Z</time>
      </trkpt>
      <trkpt lat="47.1136" lon="6.54912">
        <ele>851</ele>
        <time>2019-08-23T20:34:02Z</time>
      </trkpt>
      <trkpt lat="47.11361" lon="6.54927">
        <ele>851</ele>
        <time>2019-08-23T20:34:11Z</time>
      </trkpt>
      <trkpt lat="47.11359" lon="6.54934">
        <ele>851</ele>
        <time>2019-08-23T20:34:17Z</time>
      </trkpt>
      <trkpt lat="47.11353" lon="6.54922">
        <ele>852</ele>
        <time>2019-08-23T20:34:20Z</time>
      </trkpt>
      <trkpt lat="47.11346" lon="6.54899">
        <ele>851</ele>
        <time>2019-08-23T20:34:31Z</time>
      </trkpt>
      <trkpt lat="47.11333" lon="6.5487">
        <ele>851</ele>
        <time>2019-08-23T20:34:49Z</time>
      </trkpt>
      <trkpt lat="47.11325" lon="6.54854">
        <ele>852</ele>
        <time>2019-08-23T20:34:52Z</time>
      </trkpt>
      <trkpt lat="47.11306" lon="6.54826">
        <ele>852</ele>
        <time>2019-08-23T20:35:04Z</time>
      </trkpt>
      <trkpt lat="47.11288" lon="6.54804">
        <ele>854</ele>
        <time>2019-08-23T20:35:16Z</time>
      </trkpt>
      <trkpt lat="47.11279" lon="6.54795">
        <ele>854</ele>
        <time>2019-08-23T20:35:28Z</time>
      </trkpt>
      <trkpt lat="47.11261" lon="6.54775">
        <ele>854</ele>
        <time>2019-08-23T20:35:31Z</time>
      </trkpt>
      <trkpt lat="47.11245" lon="6.54757">
        <ele>856</ele>
        <time>2019-08-23T20:35:43Z</time>
      </trkpt>
      <trkpt lat="47.1123" lon="6.54742">
        <ele>856</ele>
        <time>2019-08-23T20:35:52Z</time>
      </trkpt>
      <trkpt lat="47.11222" lon="6.54735">
        <ele>857</ele>
        <time>2019-08-23T20:35:55Z</time>
      </trkpt>
      <trkpt lat="47.11208" lon="6.54715">
        <ele>858</ele>
        <time>2019-08-23T20:36:22Z</time>
      </trkpt>
      <trkpt lat="47.11193" lon="6.54695">
        <ele>859</ele>
        <time>2019-08-23T20:37:51Z</time>
      </trkpt>
      <trkpt lat="47.11185" lon="6.54685">
        <ele>859</ele>
        <time>2019-08-23T20:39:08Z</time>
      </trkpt>
      <trkpt lat="47.11168" lon="6.54666">
        <ele>860</ele>
        <time>2019-08-23T20:39:14Z</time>
      </trkpt>
      <trkpt lat="47.1115" lon="6.54644">
        <ele>860</ele>
        <time>2019-08-23T20:39:53Z</time>
      </trkpt>
      <trkpt lat="47.11134" lon="6.54624">
        <ele>861</ele>
        <time>2019-08-23T20:39:56Z</time>
      </trkpt>
      <trkpt lat="47.11126" lon="6.54614">
        <ele>861</ele>
        <time>2019-08-23T20:40:08Z</time>
      </trkpt>
      <trkpt lat="47.11109" lon="6.54594">
        <ele>862</ele>
        <time>2019-08-23T20:40:17Z</time>
      </trkpt>
      <trkpt lat="47.11092" lon="6.54571">
        <ele>862</ele>
        <time>2019-08-23T20:40:32Z</time>
      </trkpt>
      <trkpt lat="47.11077" lon="6.54546">
        <ele>863</ele>
        <time>2019-08-23T20:40:38Z</time>
      </trkpt>
      <trkpt lat="47.1107" lon="6.54534">
        <ele>863</ele>
        <time>2019-08-23T20:40:53Z</time>
      </trkpt>
      <trkpt lat="47.11053" lon="6.54513">
        <ele>863</ele>
        <time>2019-08-23T20:40:59Z</time>
      </trkpt>
      <trkpt lat="47.11034" lon="6.54494">
        <ele>863</ele>
        <time>2019-08-23T20:41:08Z</time>
      </trkpt>
      <trkpt lat="47.11028" lon="6.54486">
        <ele>864</ele>
        <time>2019-08-23T20:41:14Z</time>
      </trkpt>
      <trkpt lat="47.11016" lon="6.54469">
        <ele>865</ele>
        <time>2019-08-23T20:41:29Z</time>
      </trkpt>
      <trkpt lat="47.11003" lon="6.54447">
        <ele>865</ele>
        <time>2019-08-23T20:41:48Z</time>
      </trkpt>
      <trkpt lat="47.10971" lon="6.54407">
        <ele>866</ele>
        <time>2019-08-23T20:41:54Z</time>
      </trkpt>
      <trkpt lat="47.10947" lon="6.54379">
        <ele>867</ele>
        <time>2019-08-23T20:42:15Z</time>
      </trkpt>
      <trkpt lat="47.10918" lon="6.54339">
        <ele>868</ele>
        <time>2019-08-23T20:42:36Z</time>
      </trkpt>
      <trkpt lat="47.10902" lon="6.54314">
        <ele>869</ele>
        <time>2019-08-23T20:42:39Z</time>
      </trkpt>
      <trkpt lat="47.10863" lon="6.54263">
        <ele>870</ele>
        <time>2019-08-23T20:42:45Z</time>
      </trkpt>
      <trkpt lat="47.10834" lon="6.54228">
        <ele>873</ele>
        <time>2019-08-23T20:42:51Z</time>
      </trkpt>
      <trkpt lat="47.10823" lon="6.54218">
        <ele>873</ele>
        <time>2019-08-23T20:43:13Z</time>
      </trkpt>
      <trkpt lat="47.10798" lon="6.54186">
        <ele>876</ele>
        <time>2019-08-23T20:43:16Z</time>
      </trkpt>
      <trkpt lat="47.10781" lon="6.54163">
        <ele>898.3</ele>
        <time>2019-08-23T20:43:22Z</time>
      </trkpt>
      <trkpt lat="47.10759" lon="6.54121">
        <ele>899</ele>
        <time>2019-08-23T20:43:34Z</time>
      </trkpt>
      <trkpt lat="47.10742" lon="6.54088">
        <ele>903.5</ele>
        <time>2019-08-23T20:43:48Z</time>
      </trkpt>
      <trkpt lat="47.10712" lon="6.54033">
        <ele>906.5</ele>
        <time>2019-08-23T20:43:57Z</time>
      </trkpt>
      <trkpt lat="47.10683" lon="6.53984">
        <ele>907.5</ele>
        <time>2019-08-23T20:44:27Z</time>
      </trkpt>
      <trkpt lat="47.10668" lon="6.53962">
        <ele>907</ele>
        <time>2019-08-23T20:44:39Z</time>
      </trkpt>
      <trkpt lat="47.10639" lon="6.53914">
        <ele>907.7</ele>
        <time>2019-08-23T20:44:45Z</time>
      </trkpt>
      <trkpt lat="47.10634" lon="6.53978">
        <ele>912.1</ele>
        <time>2019-08-23T20:45:03Z</time>
      </trkpt>
      <trkpt lat="47.10631" lon="6.54006">
        <ele>912.8</ele>
        <time>2019-08-23T20:45:42Z</time>
      </trkpt>
      <trkpt lat="47.10634" lon="6.54035">
        <ele>897</ele>
        <time>2019-08-23T20:45:57Z</time>
      </trkpt>
      <trkpt lat="47.10636" lon="6.54073">
        <ele>912.8</ele>
        <time>2019-08-23T20:46:02Z</time>
      </trkpt>
      <trkpt lat="47.10636" lon="6.54102">
        <ele>902</ele>
        <time>2019-08-23T20:46:11Z</time>
      </trkpt>
      <trkpt lat="47.1064" lon="6.54149">
        <ele>912.8</ele>
        <time>2019-08-23T20:46:29Z</time>
      </trkpt>
      <trkpt lat="47.10644" lon="6.54183">
        <ele>913.9</ele>
        <time>2019-08-23T20:46:41Z</time>
      </trkpt>
      <trkpt lat="47.10648" lon="6.54237">
        <ele>915.3</ele>
        <time>2019-08-23T20:47:57Z</time>
      </trkpt>
      <trkpt lat="47.1065" lon="6.54265">
        <ele>910</ele>
        <time>2019-08-23T20:48:06Z</time>
      </trkpt>
      <trkpt lat="47.10654" lon="6.54313">
        <ele>920.7</ele>
        <time>2019-08-23T20:48:12Z</time>
      </trkpt>
      <trkpt lat="47.10657" lon="6.54347">
        <ele>924.7</ele>
        <time>2019-08-23T20:48:23Z</time>
      </trkpt>
      <trkpt lat="47.10661" lon="6.54385">
        <ele>920</ele>
        <time>2019-08-23T20:48:32Z</time>
      </trkpt>
      <trkpt lat="47.10664" lon="6.54428">
        <ele>924</ele>
        <time>2019-08-23T20:48:41Z</time>
      </trkpt>
      <trkpt lat="47.10656" lon="6.54463">
        <ele>927</ele>
        <time>2019-08-23T20:49:23Z</time>
      </trkpt>
      <trkpt lat="47.10627" lon="6.54469">
        <ele>931</ele>
        <time>2019-08-23T20:50:46Z</time>
      </trkpt>
      <trkpt lat="47.10627" lon="6.54469">
        <ele>931</ele>
        <time>2019-08-23T20:50:58Z</time>
      </trkpt>
      <trkpt lat="47.10588" lon="6.54499">
        <ele>934</ele>
        <time>2019-08-23T20:51:07Z</time>
      </trkpt>
      <trkpt lat="47.10579" lon="6.54533">
        <ele>935</ele>
        <time>2019-08-23T20:51:16Z</time>
      </trkpt>
      <trkpt lat="47.10573" lon="6.54573">
        <ele>936</ele>
        <time>2019-08-23T20:51:22Z</time>
      </trkpt>
      <trkpt lat="47.10562" lon="6.54612">
        <ele>938</ele>
        <time>2019-08-23T20:51:31Z</time>
      </trkpt>
      <trkpt lat="47.10527" lon="6.54712">
        <ele>940</ele>
        <time>2019-08-23T20:51:55Z</time>
      </trkpt>
      <trkpt lat="47.10492" lon="6.54812">
        <ele>942</ele>
        <time>2019-08-23T20:52:07Z</time>
      </trkpt>
      <trkpt lat="47.10464" lon="6.54878">
        <ele>942</ele>
        <time>2019-08-23T20:52:13Z</time>
      </trkpt>
      <trkpt lat="47.10389" lon="6.55018">
        <ele>934</ele>
        <time>2019-08-23T20:52:22Z</time>
      </trkpt>
      <trkpt lat="47.10344" lon="6.55099">
        <ele>932</ele>
        <time>2019-08-23T20:52:34Z</time>
      </trkpt>
      <trkpt lat="47.10314" lon="6.55145">
        <ele>931</ele>
        <time>2019-08-23T20:52:37Z</time>
      </trkpt>
      <trkpt lat="47.10268" lon="6.55178">
        <ele>921.1</ele>
        <time>2019-08-23T20:52:43Z</time>
      </trkpt>
      <trkpt lat="47.10178" lon="6.55191">
        <ele>916.6</ele>
        <time>2019-08-23T20:52:52Z</time>
      </trkpt>
      <trkpt lat="47.1015" lon="6.55159">
        <ele>918</ele>
        <time>2019-08-23T20:52:54Z</time>
      </trkpt>
      <trkpt lat="47.10107" lon="6.55135">
        <ele>917</ele>
        <time>2019-08-23T20:53:03Z</time>
      </trkpt>
      <trkpt lat="47.10017" lon="6.55156">
        <ele>913.1</ele>
        <time>2019-08-23T20:53:09Z</time>
      </trkpt>
      <trkpt lat="47.09929" lon="6.55192">
        <ele>912.8</ele>
        <time>2019-08-23T20:53:18Z</time>
      </trkpt>
      <trkpt lat="47.09897" lon="6.55199">
        <ele>914.5</ele>
        <time>2019-08-23T20:53:39Z</time>
      </trkpt>
      <trkpt lat="47.09851" lon="6.55156">
        <ele>915</ele>
        <time>2019-08-23T20:53:45Z</time>
      </trkpt>
      <trkpt lat="47.0976" lon="6.55054">
        <ele>909</ele>
        <time>2019-08-23T20:53:51Z</time>
      </trkpt>
      <trkpt lat="47.09707" lon="6.55022">
        <ele>906.4</ele>
        <time>2019-08-23T20:53:54Z</time>
      </trkpt>
      <trkpt lat="47.09663" lon="6.5494">
        <ele>902</ele>
        <time>2019-08-23T20:54:00Z</time>
      </trkpt>
      <trkpt lat="47.09562" lon="6.54899">
        <ele>900</ele>
        <time>2019-08-23T20:54:06Z</time>
      </trkpt>
      <trkpt lat="47.0953" lon="6.54889">
        <ele>903</ele>
        <time>2019-08-23T20:54:12Z</time>
      </trkpt>
      <trkpt lat="47.09523" lon="6.54885">
        <ele>904</ele>
        <time>2019-08-23T20:54:15Z</time>
      </trkpt>
      <trkpt lat="47.09484" lon="6.54846">
        <ele>908</ele>
        <time>2019-08-23T20:54:21Z</time>
      </trkpt>
      <trkpt lat="47.09434" lon="6.5479">
        <ele>913</ele>
        <time>2019-08-23T20:54:30Z</time>
      </trkpt>
      <trkpt lat="47.09421" lon="6.54776">
        <ele>913</ele>
        <time>2019-08-23T20:54:36Z</time>
      </trkpt>
      <trkpt lat="47.09369" lon="6.54726">
        <ele>918</ele>
        <time>2019-08-23T20:54:39Z</time>
      </trkpt>
      <trkpt lat="47.09341" lon="6.54707">
        <ele>920</ele>
        <time>2019-08-23T20:54:48Z</time>
      </trkpt>
      <trkpt lat="47.09341" lon="6.54707">
        <ele>919</ele>
        <time>2019-08-23T20:55:00Z</time>
      </trkpt>
      <trkpt lat="47.09341" lon="6.54707">
        <ele>919</ele>
        <time>2019-08-23T20:55:03Z</time>
      </trkpt>
      <trkpt lat="47.09341" lon="6.54707">
        <ele>920</ele>
        <time>2019-08-23T20:55:09Z</time>
      </trkpt>
      <trkpt lat="47.09341" lon="6.54707">
        <ele>920</ele>
        <time>2019-08-23T20:55:14Z</time>
      </trkpt>
      <trkpt lat="47.09341" lon="6.54707">
        <ele>919</ele>
        <time>2019-08-23T20:55:23Z</time>
      </trkpt>
      <trkpt lat="47.09341" lon="6.54707">
        <ele>919</ele>
        <time>2019-08-23T20:55:26Z</time>
      </trkpt>
      <trkpt lat="47.09341" lon="6.5471">
        <ele>919</ele>
        <time>2019-08-23T20:55:32Z</time>
      </trkpt>
      <trkpt lat="47.09341" lon="6.5471">
        <ele>919</ele>
        <time>2019-08-23T20:55:38Z</time>
      </trkpt>
      <trkpt lat="47.09342" lon="6.54708">
        <ele>919</ele>
        <time>2019-08-23T20:55:44Z</time>
      </trkpt>
      <trkpt lat="47.09342" lon="6.54708">
        <ele>919</ele>
        <time>2019-08-23T20:55:53Z</time>
      </trkpt>
      <trkpt lat="47.09342" lon="6.54708">
        <ele>919</ele>
        <time>2019-08-23T20:55:59Z</time>
      </trkpt>
      <trkpt lat="47.09342" lon="6.54708">
        <ele>919</ele>
        <time>2019-08-23T20:56:05Z</time>
      </trkpt>
      <trkpt lat="47.09342" lon="6.54708">
        <ele>919</ele>
        <time>2019-08-23T20:56:11Z</time>
      </trkpt>
      <trkpt lat="47.09342" lon="6.54708">
        <ele>919</ele>
        <time>2019-08-23T20:56:20Z</time>
      </trkpt>
      <trkpt lat="47.09317" lon="6.54687">
        <ele>936.2</ele>
        <time>2019-08-23T20:56:29Z</time>
      </trkpt>
      <trkpt lat="47.09303" lon="6.54672">
        <ele>922</ele>
        <time>2019-08-23T20:56:35Z</time>
      </trkpt>
      <trkpt lat="47.09229" lon="6.54614">
        <ele>926</ele>
        <time>2019-08-23T20:56:44Z</time>
      </trkpt>
      <trkpt lat="47.09182" lon="6.54577">
        <ele>932</ele>
        <time>2019-08-23T20:56:56Z</time>
      </trkpt>
      <trkpt lat="47.09162" lon="6.5456">
        <ele>943.3</ele>
      </trkpt>
      <trkpt lat="47.09151" lon="6.54565">
        <ele>944</ele>
      </trkpt>
      <trkpt lat="47.09151" lon="6.54581">
        <ele>944.2</ele>
      </trkpt>
      <trkpt lat="47.09184" lon="6.54623">
        <ele>945.8</ele>
      </trkpt>
      <trkpt lat="47.0922" lon="6.54685">
        <ele>957.1</ele>
      </trkpt>
      <trkpt lat="47.09245" lon="6.54763">
        <ele>964.8</ele>
      </trkpt>
      <trkpt lat="47.09258" lon="6.5484">
        <ele>964.1</ele>
      </trkpt>
      <trkpt lat="47.09281" lon="6.54924">
        <ele>962.7</ele>
      </trkpt>
      <trkpt lat="47.0928" lon="6.54944">
        <ele>954</ele>
      </trkpt>
      <trkpt lat="47.09274" lon="6.54945">
        <ele>955</ele>
      </trkpt>
      <trkpt lat="47.09254" lon="6.54926">
        <ele>956</ele>
      </trkpt>
      <trkpt lat="47.09192" lon="6.54879">
        <ele>961</ele>
      </trkpt>
      <trkpt lat="47.09145" lon="6.54849">
        <ele>979.8</ele>
      </trkpt>
      <trkpt lat="47.09114" lon="6.54831">
        <ele>969</ele>
      </trkpt>
      <trkpt lat="47.09084" lon="6.54827">
        <ele>972</ele>
      </trkpt>
      <trkpt lat="47.09064" lon="6.54817">
        <ele>975</ele>
      </trkpt>
      <trkpt lat="47.09045" lon="6.54791">
        <ele>978</ele>
      </trkpt>
      <trkpt lat="47.08993" lon="6.54708">
        <ele>991.4</ele>
      </trkpt>
      <trkpt lat="47.08969" lon="6.5463">
        <ele>991</ele>
      </trkpt>
      <trkpt lat="47.08955" lon="6.54585">
        <ele>991</ele>
      </trkpt>
      <trkpt lat="47.08955" lon="6.54585">
        <ele>991</ele>
      </trkpt>
      <trkpt lat="47.08955" lon="6.54585">
        <ele>991</ele>
      </trkpt>
      <trkpt lat="47.08955" lon="6.54585">
        <ele>991</ele>
      </trkpt>
      <trkpt lat="47.08955" lon="6.54585">
        <ele>991</ele>
      </trkpt>
      <trkpt lat="47.08955" lon="6.54585">
        <ele>990</ele>
      </trkpt>
      <trkpt lat="47.08953" lon="6.54585">
        <ele>991</ele>
      </trkpt>
      <trkpt lat="47.08953" lon="6.54585">
        <ele>990</ele>
      </trkpt>
      <trkpt lat="47.08954" lon="6.54583">
        <ele>990</ele>
      </trkpt>
      <trkpt lat="47.08954" lon="6.54583">
        <ele>988</ele>
      </trkpt>
      <trkpt lat="47.08954" lon="6.54583">
        <ele>989</ele>
      </trkpt>
      <trkpt lat="47.08954" lon="6.54585">
        <ele>989</ele>
      </trkpt>
      <trkpt lat="47.08954" lon="6.54585">
        <ele>990</ele>
      </trkpt>
      <trkpt lat="47.08954" lon="6.54585">
        <ele>990</ele>
      </trkpt>
      <trkpt lat="47.08953" lon="6.54583">
        <ele>990</ele>
      </trkpt>
      <trkpt lat="47.08953" lon="6.54583">
        <ele>990</ele>
      </trkpt>
      <trkpt lat="47.08953" lon="6.54583">
        <ele>990</ele>
      </trkpt>
      <trkpt lat="47.08953" lon="6.54583">
        <ele>990</ele>
      </trkpt>
      <trkpt lat="47.08953" lon="6.54548">
        <ele>989</ele>
      </trkpt>
      <trkpt lat="47.0895" lon="6.54509">
        <ele>987</ele>
      </trkpt>
      <trkpt lat="47.08914" lon="6.54451">
        <ele>981</ele>
      </trkpt>
      <trkpt lat="47.08885" lon="6.54374">
        <ele>978</ele>
      </trkpt>
      <trkpt lat="47.08873" lon="6.54334">
        <ele>975</ele>
      </trkpt>
      <trkpt lat="47.08873" lon="6.54334">
        <ele>975</ele>
      </trkpt>
      <trkpt lat="47.08873" lon="6.54334">
        <ele>975</ele>
      </trkpt>
      <trkpt lat="47.08873" lon="6.54334">
        <ele>975</ele>
      </trkpt>
      <trkpt lat="47.08873" lon="6.54334">
        <ele>975</ele>
      </trkpt>
      <trkpt lat="47.08873" lon="6.54334">
        <ele>975</ele>
      </trkpt>
      <trkpt lat="47.08873" lon="6.54334">
        <ele>975</ele>
      </trkpt>
      <trkpt lat="47.08873" lon="6.54334">
        <ele>984.7</ele>
      </trkpt>
      <trkpt lat="47.08873" lon="6.54334">
        <ele>975</ele>
      </trkpt>
      <trkpt lat="47.08872" lon="6.54328">
        <ele>975</ele>
      </trkpt>
      <trkpt lat="47.08872" lon="6.54328">
        <ele>975</ele>
      </trkpt>
      <trkpt lat="47.08872" lon="6.54328">
        <ele>975</ele>
      </trkpt>
      <trkpt lat="47.08872" lon="6.54328">
        <ele>975</ele>
      </trkpt>
      <trkpt lat="47.08872" lon="6.54328">
        <ele>975</ele>
      </trkpt>
      <trkpt lat="47.08871" lon="6.54325">
        <ele>975</ele>
      </trkpt>
      <trkpt lat="47.0887" lon="6.54324">
        <ele>975</ele>
      </trkpt>
      <trkpt lat="47.0887" lon="6.54323">
        <ele>975</ele>
      </trkpt>
      <trkpt lat="47.08869" lon="6.5432">
        <ele>975</ele>
      </trkpt>
      <trkpt lat="47.08868" lon="6.54319">
        <ele>975</ele>
      </trkpt>
      <trkpt lat="47.08868" lon="6.54318">
        <ele>975</ele>
      </trkpt>
      <trkpt lat="47.08867" lon="6.54316">
        <ele>981.6</ele>
      </trkpt>
      <trkpt lat="47.08867" lon="6.54316">
        <ele>975</ele>
      </trkpt>
      <trkpt lat="47.08867" lon="6.54315">
        <ele>976</ele>
      </trkpt>
      <trkpt lat="47.08857" lon="6.54295">
        <ele>976</ele>
      </trkpt>
      <trkpt lat="47.08833" lon="6.54241">
        <ele>976</ele>
      </trkpt>
      <trkpt lat="47.08805" lon="6.54197">
        <ele>977</ele>
      </trkpt>
      <trkpt lat="47.08794" lon="6.54134">
        <ele>975</ele>
      </trkpt>
      <trkpt lat="47.08762" lon="6.54061">
        <ele>973</ele>
      </trkpt>
      <trkpt lat="47.0871" lon="6.53986">
        <ele>972</ele>
      </trkpt>
      <trkpt lat="47.08694" lon="6.53965">
        <ele>972</ele>
      </trkpt>
      <trkpt lat="47.08688" lon="6.53884">
        <ele>966</ele>
      </trkpt>
      <trkpt lat="47.08649" lon="6.53775">
        <ele>956</ele>
      </trkpt>
      <trkpt lat="47.08624" lon="6.53712">
        <ele>948</ele>
      </trkpt>
      <trkpt lat="47.08612" lon="6.53701">
        <ele>954.2</ele>
      </trkpt>
      <trkpt lat="47.08554" lon="6.53628">
        <ele>950</ele>
      </trkpt>
      <trkpt lat="47.08516" lon="6.53578">
        <ele>939</ele>
      </trkpt>
      <trkpt lat="47.0851" lon="6.53566">
        <ele>936</ele>
      </trkpt>
      <trkpt lat="47.0847" lon="6.5351">
        <ele>944</ele>
      </trkpt>
      <trkpt lat="47.0841" lon="6.53434">
        <ele>930</ele>
      </trkpt>
      <trkpt lat="47.08323" lon="6.53329">
        <ele>924</ele>
      </trkpt>
      <trkpt lat="47.08277" lon="6.53287">
        <ele>921</ele>
      </trkpt>
      <trkpt lat="47.08232" lon="6.53216">
        <ele>919.2</ele>
      </trkpt>
      <trkpt lat="47.0818" lon="6.53038">
        <ele>914</ele>
      </trkpt>
      <trkpt lat="47.08166" lon="6.53006">
        <ele>914</ele>
      </trkpt>
      <trkpt lat="47.07994" lon="6.52764">
        <ele>906.6</ele>
      </trkpt>
      <trkpt lat="47.07842" lon="6.52543">
        <ele>917.8</ele>
      </trkpt>
      <trkpt lat="47.07712" lon="6.5236">
        <ele>894</ele>
      </trkpt>
      <trkpt lat="47.07698" lon="6.52323">
        <ele>894</ele>
      </trkpt>
      <trkpt lat="47.07711" lon="6.52261">
        <ele>894</ele>
      </trkpt>
      <trkpt lat="47.07736" lon="6.52098">
        <ele>909.7</ele>
      </trkpt>
      <trkpt lat="47.07745" lon="6.52043">
        <ele>896</ele>
      </trkpt>
      <trkpt lat="47.07739" lon="6.52021">
        <ele>896</ele>
      </trkpt>
      <trkpt lat="47.07725" lon="6.51966">
        <ele>895</ele>
      </trkpt>
      <trkpt lat="47.07703" lon="6.51922">
        <ele>894</ele>
      </trkpt>
      <trkpt lat="47.07693" lon="6.5189">
        <ele>893</ele>
      </trkpt>
      <trkpt lat="47.0767" lon="6.51848">
        <ele>892</ele>
      </trkpt>
      <trkpt lat="47.07633" lon="6.51813">
        <ele>888</ele>
      </trkpt>
      <trkpt lat="47.07601" lon="6.51784">
        <ele>885</ele>
      </trkpt>
      <trkpt lat="47.07602" lon="6.51769">
        <ele>885</ele>
      </trkpt>
      <trkpt lat="47.07595" lon="6.51759">
        <ele>885</ele>
      </trkpt>
      <trkpt lat="47.07608" lon="6.51742">
        <ele>885</ele>
      </trkpt>
      <trkpt lat="47.07614" lon="6.51722">
        <ele>885</ele>
      </trkpt>
      <trkpt lat="47.07622" lon="6.51698">
        <ele>885</ele>
      </trkpt>
      <trkpt lat="47.07614" lon="6.51643">
        <ele>885</ele>
      </trkpt>
      <trkpt lat="47.07615" lon="6.51576">
        <ele>885</ele>
      </trkpt>
      <trkpt lat="47.07602" lon="6.51578">
        <ele>885</ele>
      </trkpt>
      <trkpt lat="47.07534" lon="6.51618">
        <ele>882</ele>
      </trkpt>
      <trkpt lat="47.07472" lon="6.51641">
        <ele>886</ele>
      </trkpt>
      <trkpt lat="47.07453" lon="6.51647">
        <ele>885.7</ele>
      </trkpt>
      <trkpt lat="47.07407" lon="6.51677">
        <ele>884</ele>
      </trkpt>
      <trkpt lat="47.07371" lon="6.51698">
        <ele>880</ele>
      </trkpt>
      <trkpt lat="47.07329" lon="6.51712">
        <ele>880</ele>
      </trkpt>
      <trkpt lat="47.07299" lon="6.51719">
        <ele>879</ele>
      </trkpt>
      <trkpt lat="47.07243" lon="6.51736">
        <ele>886.4</ele>
      </trkpt>
      <trkpt lat="47.07176" lon="6.51689">
        <ele>879</ele>
      </trkpt>
      <trkpt lat="47.07165" lon="6.51731">
        <ele>877</ele>
      </trkpt>
      <trkpt lat="47.07152" lon="6.51793">
        <ele>877</ele>
      </trkpt>
      <trkpt lat="47.07136" lon="6.51894">
        <ele>881</ele>
      </trkpt>
      <trkpt lat="47.07106" lon="6.5195">
        <ele>883</ele>
      </trkpt>
      <trkpt lat="47.07076" lon="6.51973">
        <ele>885</ele>
      </trkpt>
      <trkpt lat="47.07017" lon="6.52004">
        <ele>901.4</ele>
      </trkpt>
      <trkpt lat="47.07003" lon="6.52011">
        <ele>900</ele>
      </trkpt>
      <trkpt lat="47.06997" lon="6.52028">
        <ele>887</ele>
      </trkpt>
      <trkpt lat="47.06959" lon="6.52089">
        <ele>903.9</ele>
      </trkpt>
      <trkpt lat="47.06947" lon="6.52104">
        <ele>904.4</ele>
      </trkpt>
      <trkpt lat="47.06896" lon="6.52106">
        <ele>896</ele>
      </trkpt>
      <trkpt lat="47.06819" lon="6.52121">
        <ele>903</ele>
      </trkpt>
      <trkpt lat="47.06799" lon="6.52122">
        <ele>903</ele>
      </trkpt>
      <trkpt lat="47.06765" lon="6.52101">
        <ele>903</ele>
      </trkpt>
      <trkpt lat="47.06682" lon="6.52052">
        <ele>906.4</ele>
      </trkpt>
      <trkpt lat="47.06609" lon="6.52003">
        <ele>902.2</ele>
      </trkpt>
      <trkpt lat="47.0657" lon="6.51995">
        <ele>899.6</ele>
      </trkpt>
      <trkpt lat="47.06497" lon="6.51979">
        <ele>898.8</ele>
      </trkpt>
      <trkpt lat="47.06439" lon="6.51968">
        <ele>899.4</ele>
      </trkpt>
      <trkpt lat="47.06401" lon="6.51908">
        <ele>903.4</ele>
      </trkpt>
      <trkpt lat="47.06374" lon="6.51892">
        <ele>902</ele>
      </trkpt>
      <trkpt lat="47.06326" lon="6.51902">
        <ele>905</ele>
      </trkpt>
      <trkpt lat="47.06297" lon="6.51901">
        <ele>907</ele>
      </trkpt>
      <trkpt lat="47.06277" lon="6.51892">
        <ele>907</ele>
      </trkpt>
      <trkpt lat="47.06251" lon="6.51886">
        <ele>907</ele>
      </trkpt>
      <trkpt lat="47.06204" lon="6.51872">
        <ele>909</ele>
      </trkpt>
      <trkpt lat="47.06161" lon="6.51852">
        <ele>912.6</ele>
      </trkpt>
      <trkpt lat="47.06144" lon="6.51848">
        <ele>912.5</ele>
      </trkpt>
      <trkpt lat="47.06095" lon="6.51826">
        <ele>910</ele>
      </trkpt>
      <trkpt lat="47.06056" lon="6.51834">
        <ele>911</ele>
      </trkpt>
      <trkpt lat="47.06043" lon="6.51843">
        <ele>914.5</ele>
      </trkpt>
      <trkpt lat="47.05999" lon="6.51835">
        <ele>917.3</ele>
      </trkpt>
      <trkpt lat="47.05973" lon="6.51835">
        <ele>919.7</ele>
      </trkpt>
      <trkpt lat="47.05952" lon="6.51815">
        <ele>919</ele>
      </trkpt>
      <trkpt lat="47.0593" lon="6.51819">
        <ele>920.8</ele>
      </trkpt>
      <trkpt lat="47.05905" lon="6.51808">
        <ele>921.5</ele>
      </trkpt>
      <trkpt lat="47.05859" lon="6.51762">
        <ele>918</ele>
      </trkpt>
      <trkpt lat="47.05828" lon="6.5173">
        <ele>916</ele>
      </trkpt>
      <trkpt lat="47.05811" lon="6.51709">
        <ele>915</ele>
      </trkpt>
      <trkpt lat="47.0578" lon="6.51653">
        <ele>910</ele>
      </trkpt>
      <trkpt lat="47.05747" lon="6.51571">
        <ele>905</ele>
      </trkpt>
      <trkpt lat="47.05703" lon="6.5148">
        <ele>897</ele>
      </trkpt>
      <trkpt lat="47.05686" lon="6.51454">
        <ele>896</ele>
      </trkpt>
      <trkpt lat="47.0566" lon="6.51413">
        <ele>892</ele>
      </trkpt>
      <trkpt lat="47.0565" lon="6.51393">
        <ele>897</ele>
      </trkpt>
      <trkpt lat="47.05654" lon="6.51358">
        <ele>888</ele>
      </trkpt>
      <trkpt lat="47.05659" lon="6.51323">
        <ele>885</ele>
      </trkpt>
      <trkpt lat="47.05663" lon="6.51214">
        <ele>881</ele>
      </trkpt>
      <trkpt lat="47.05638" lon="6.51166">
        <ele>879</ele>
      </trkpt>
      <trkpt lat="47.0561" lon="6.51119">
        <ele>878</ele>
      </trkpt>
      <trkpt lat="47.05595" lon="6.51068">
        <ele>876</ele>
      </trkpt>
      <trkpt lat="47.05557" lon="6.51">
        <ele>876</ele>
      </trkpt>
      <trkpt lat="47.05498" lon="6.50924">
        <ele>875</ele>
      </trkpt>
      <trkpt lat="47.05475" lon="6.50884">
        <ele>875</ele>
      </trkpt>
      <trkpt lat="47.05443" lon="6.50846">
        <ele>873</ele>
      </trkpt>
      <trkpt lat="47.0538" lon="6.5077">
        <ele>872</ele>
      </trkpt>
      <trkpt lat="47.05384" lon="6.50737">
        <ele>866</ele>
      </trkpt>
      <trkpt lat="47.05368" lon="6.50736">
        <ele>866.7</ele>
      </trkpt>
      <trkpt lat="47.05326" lon="6.50732">
        <ele>870</ele>
      </trkpt>
      <trkpt lat="47.05295" lon="6.50715">
        <ele>871</ele>
      </trkpt>
      <trkpt lat="47.05246" lon="6.50672">
        <ele>872</ele>
      </trkpt>
      <trkpt lat="47.05219" lon="6.50645">
        <ele>872</ele>
      </trkpt>
      <trkpt lat="47.05175" lon="6.50602">
        <ele>871</ele>
      </trkpt>
      <trkpt lat="47.05125" lon="6.50554">
        <ele>870</ele>
      </trkpt>
      <trkpt lat="47.05115" lon="6.50539">
        <ele>870</ele>
      </trkpt>
      <trkpt lat="47.05088" lon="6.50459">
        <ele>870</ele>
      </trkpt>
      <trkpt lat="47.05059" lon="6.50357">
        <ele>864</ele>
      </trkpt>
      <trkpt lat="47.0504" lon="6.5028">
        <ele>863</ele>
      </trkpt>
      <trkpt lat="47.0503" lon="6.50225">
        <ele>861</ele>
      </trkpt>
      <trkpt lat="47.05018" lon="6.50149">
        <ele>861</ele>
      </trkpt>
      <trkpt lat="47.05005" lon="6.50061">
        <ele>861</ele>
      </trkpt>
      <trkpt lat="47.05" lon="6.50011">
        <ele>861</ele>
      </trkpt>
      <trkpt lat="47.04988" lon="6.49937">
        <ele>862</ele>
      </trkpt>
      <trkpt lat="47.04985" lon="6.49854">
        <ele>865</ele>
      </trkpt>
      <trkpt lat="47.04985" lon="6.49788">
        <ele>865</ele>
      </trkpt>
      <trkpt lat="47.04985" lon="6.49749">
        <ele>865</ele>
      </trkpt>
      <trkpt lat="47.04981" lon="6.49686">
        <ele>865</ele>
      </trkpt>
      <trkpt lat="47.04975" lon="6.4963">
        <ele>866</ele>
      </trkpt>
      <trkpt lat="47.04967" lon="6.4957">
        <ele>868</ele>
      </trkpt>
      <trkpt lat="47.04947" lon="6.49488">
        <ele>864.7</ele>
      </trkpt>
      <trkpt lat="47.04926" lon="6.49427">
        <ele>865</ele>
      </trkpt>
      <trkpt lat="47.04905" lon="6.49351">
        <ele>864.3</ele>
      </trkpt>
      <trkpt lat="47.04883" lon="6.49275">
        <ele>863.4</ele>
      </trkpt>
      <trkpt lat="47.04885" lon="6.49237">
        <ele>863.2</ele>
      </trkpt>
      <trkpt lat="47.0493" lon="6.4922">
        <ele>863.8</ele>
      </trkpt>
      <trkpt lat="47.04996" lon="6.49205">
        <ele>864.7</ele>
      </trkpt>
      <trkpt lat="47.05049" lon="6.49216">
        <ele>864.7</ele>
      </trkpt>
      <trkpt lat="47.05207" lon="6.49183">
        <ele>859.8</ele>
      </trkpt>
    </trkseg>
  </trk>
</gpx>